THA6672 EGLL-RKSI
Flight info
| Callsign | THA6672 |
|---|---|
| Flight time | N/A |
| Altitude | 35000 |
| Route | DET L6 DVR UL9 KONAN UL607 MATUG DCT GUBAX DCT KOMIB L984 SULUS Z650 VEMUT DCT PEPIK DCT BUDOP DCT DINRO N743 UDROS UM859 KARDE UN644 ROLIN DCT TAGAR DCT BT DCT BARAD M747 SUBUT T916 BALUN/K0920F350 T916 PIGAL M610 RULAD/K0913S1065 A343 POSOT B215 FKG W188 LIKMI W270 DKO W69 HUR B339 LADIX W34 VAPGU W100 ORAVA W201 UNSEK A326 DONVO G597 AGAVO/N0500F350 Y644 REBIT REBIT1Y |
| Aircraft | B789/H-SDE1E2E3FGHIJ2J3J4J5M1RWXY/LB1D1 |
Departure
| Time | 2026-05-07 01:26 |
|---|---|
| Airport | London Heathrow Airport (EGLL) |
Arrival
| Time | N/A |
|---|---|
| Airport | Incheon International Airport (RKSI) |
| Time | Latitude | Longitude | Altitude | Speed | Heading |
|---|---|---|---|---|---|
| 2026-05-07 00:50 | 51.47037 | -0.46361 | 94 ft | 0 kts | 235° |
| 2026-05-07 01:14 | 51.47048 | -0.46336 | 95 ft | 4 kts | 236° |
| 2026-05-07 01:14 | 51.47062 | -0.46303 | 93 ft | 1 kts | 236° |
| 2026-05-07 01:14 | 51.47072 | -0.46273 | 94 ft | 4 kts | 261° |
| 2026-05-07 01:14 | 51.47070 | -0.46245 | 92 ft | 4 kts | 309° |
| 2026-05-07 01:15 | 51.47053 | -0.46222 | 93 ft | 4 kts | 326° |
| 2026-05-07 01:15 | 51.47032 | -0.46199 | 94 ft | 1 kts | 326° |
| 2026-05-07 01:18 | 51.47033 | -0.46200 | 94 ft | 2 kts | 326° |
| 2026-05-07 01:18 | 51.47076 | -0.46247 | 92 ft | 10 kts | 326° |
| 2026-05-07 01:18 | 51.47133 | -0.46310 | 96 ft | 10 kts | 326° |
| 2026-05-07 01:18 | 51.47187 | -0.46370 | 95 ft | 9 kts | 326° |
| 2026-05-07 01:19 | 51.47227 | -0.46423 | 95 ft | 4 kts | 301° |
| 2026-05-07 01:19 | 51.47237 | -0.46482 | 93 ft | 5 kts | 273° |
| 2026-05-07 01:19 | 51.47238 | -0.46553 | 92 ft | 13 kts | 271° |
| 2026-05-07 01:19 | 51.47238 | -0.46715 | 92 ft | 14 kts | 269° |
| 2026-05-07 01:20 | 51.47225 | -0.46842 | 94 ft | 6 kts | 226° |
| 2026-05-07 01:20 | 51.47175 | -0.46867 | 94 ft | 8 kts | 181° |
| 2026-05-07 01:20 | 51.47119 | -0.46868 | 92 ft | 8 kts | 179° |
| 2026-05-07 01:20 | 51.47066 | -0.46867 | 92 ft | 7 kts | 179° |
| 2026-05-07 01:21 | 51.47003 | -0.46866 | 92 ft | 9 kts | 179° |
| 2026-05-07 01:21 | 51.46941 | -0.46865 | 92 ft | 8 kts | 179° |
| 2026-05-07 01:21 | 51.46885 | -0.46864 | 92 ft | 9 kts | 179° |
| 2026-05-07 01:21 | 51.46777 | -0.46864 | 95 ft | 16 kts | 180° |
| 2026-05-07 01:22 | 51.46676 | -0.46878 | 95 ft | 10 kts | 213° |
| 2026-05-07 01:22 | 51.46659 | -0.46944 | 95 ft | 10 kts | 262° |
| 2026-05-07 01:22 | 51.46656 | -0.47048 | 95 ft | 9 kts | 269° |
| 2026-05-07 01:22 | 51.46656 | -0.47175 | 95 ft | 25 kts | 269° |
| 2026-05-07 01:23 | 51.46655 | -0.47518 | 94 ft | 30 kts | 269° |
| 2026-05-07 01:23 | 51.46654 | -0.47843 | 92 ft | 28 kts | 270° |
| 2026-05-07 01:23 | 51.46652 | -0.48144 | 92 ft | 26 kts | 270° |
| 2026-05-07 01:23 | 51.46652 | -0.48424 | 92 ft | 24 kts | 270° |
| 2026-05-07 01:24 | 51.46649 | -0.48683 | 94 ft | 21 kts | 261° |
| 2026-05-07 01:24 | 51.46563 | -0.48784 | 95 ft | 13 kts | 188° |
| 2026-05-07 01:24 | 51.46498 | -0.48752 | 94 ft | 9 kts | 135° |
| 2026-05-07 01:24 | 51.46477 | -0.48644 | 96 ft | 9 kts | 92° |
| 2026-05-07 01:25 | 51.46477 | -0.48639 | 96 ft | 0 kts | 92° |
| 2026-05-07 01:25 | 51.46477 | -0.48637 | 96 ft | 3 kts | 92° |
| 2026-05-07 01:25 | 51.46477 | -0.48289 | 97 ft | 62 kts | 90° |
| 2026-05-07 01:26 | 51.46482 | -0.47261 | 93 ft | 120 kts | 89° |
| 2026-05-07 01:26 | 51.46490 | -0.45652 | 101 ft | 165 kts | 89° |
| 2026-05-07 01:26 | 51.46483 | -0.43778 | 635 ft | 169 kts | 90° |
| 2026-05-07 01:26 | 51.46460 | -0.41875 | 1271 ft | 180 kts | 95° |
| 2026-05-07 01:27 | 51.45968 | -0.40031 | 1963 ft | 182 kts | 125° |
| 2026-05-07 01:27 | 51.45173 | -0.38245 | 2149 ft | 209 kts | 125° |
| 2026-05-07 01:27 | 51.44500 | -0.36076 | 2454 ft | 232 kts | 107° |
| 2026-05-07 01:27 | 51.44040 | -0.33459 | 2778 ft | 254 kts | 105° |
| 2026-05-07 01:28 | 51.43511 | -0.30722 | 3602 ft | 257 kts | 109° |
| 2026-05-07 01:28 | 51.42939 | -0.27975 | 4442 ft | 262 kts | 103° |
| 2026-05-07 01:28 | 51.42633 | -0.25080 | 5263 ft | 265 kts | 103° |
| 2026-05-07 01:28 | 51.42162 | -0.22191 | 5966 ft | 275 kts | 105° |
| 2026-05-07 01:29 | 51.41701 | -0.19173 | 6106 ft | 280 kts | 103° |
| 2026-05-07 01:29 | 51.41332 | -0.16356 | 7030 ft | 270 kts | 102° |
| 2026-05-07 01:29 | 51.41025 | -0.14045 | 7571 ft | 276 kts | 103° |
| 2026-05-07 01:29 | 51.40598 | -0.11025 | 8356 ft | 281 kts | 103° |
| 2026-05-07 01:30 | 51.40157 | -0.07947 | 9124 ft | 286 kts | 102° |
| 2026-05-07 01:30 | 51.39714 | -0.04810 | 9904 ft | 291 kts | 102° |
| 2026-05-07 01:30 | 51.39261 | -0.01583 | 10358 ft | 308 kts | 102° |
| 2026-05-07 01:30 | 51.38767 | 0.01911 | 10464 ft | 335 kts | 102° |
| 2026-05-07 01:31 | 51.38228 | 0.05696 | 10557 ft | 362 kts | 102° |
| 2026-05-07 01:31 | 51.37655 | 0.09710 | 11051 ft | 372 kts | 102° |
| 2026-05-07 01:31 | 51.37068 | 0.13765 | 11863 ft | 376 kts | 102° |
| 2026-05-07 01:31 | 51.36472 | 0.17868 | 12596 ft | 380 kts | 103° |
| 2026-05-07 01:32 | 51.35874 | 0.22007 | 13336 ft | 384 kts | 102° |
| 2026-05-07 01:32 | 51.35277 | 0.26189 | 14043 ft | 388 kts | 102° |
| 2026-05-07 01:32 | 51.34671 | 0.30420 | 14667 ft | 392 kts | 103° |
| 2026-05-07 01:32 | 51.34061 | 0.34639 | 15196 ft | 396 kts | 103° |
| 2026-05-07 01:33 | 51.33426 | 0.39007 | 15835 ft | 400 kts | 103° |
| 2026-05-07 01:33 | 51.32802 | 0.43310 | 16460 ft | 404 kts | 103° |
| 2026-05-07 01:33 | 51.32161 | 0.47713 | 17064 ft | 408 kts | 103° |
| 2026-05-07 01:33 | 51.31512 | 0.52151 | 17654 ft | 412 kts | 103° |
| 2026-05-07 01:34 | 51.30856 | 0.56632 | 18272 ft | 416 kts | 103° |
| 2026-05-07 01:34 | 51.30143 | 0.61131 | 18770 ft | 419 kts | 108° |
| 2026-05-07 01:34 | 51.29283 | 0.65595 | 19281 ft | 422 kts | 105° |
| 2026-05-07 01:34 | 51.28501 | 0.70143 | 19779 ft | 425 kts | 105° |
| 2026-05-07 01:35 | 51.27693 | 0.74699 | 20303 ft | 428 kts | 106° |
| 2026-05-07 01:35 | 51.26835 | 0.79265 | 20799 ft | 431 kts | 107° |
| 2026-05-07 01:35 | 51.25971 | 0.83869 | 21288 ft | 434 kts | 107° |
| 2026-05-07 01:35 | 51.25121 | 0.88521 | 21773 ft | 438 kts | 106° |
| 2026-05-07 01:36 | 51.24266 | 0.93196 | 22253 ft | 440 kts | 107° |
| 2026-05-07 01:36 | 51.23390 | 0.97911 | 22697 ft | 444 kts | 107° |
| 2026-05-07 01:36 | 51.22505 | 1.02642 | 23123 ft | 447 kts | 107° |
| 2026-05-07 01:36 | 51.21628 | 1.07353 | 23549 ft | 450 kts | 107° |
| 2026-05-07 01:37 | 51.20735 | 1.12148 | 23914 ft | 452 kts | 107° |
| 2026-05-07 01:37 | 51.19831 | 1.16977 | 24263 ft | 455 kts | 107° |
| 2026-05-07 01:37 | 51.18921 | 1.21818 | 24608 ft | 457 kts | 107° |
| 2026-05-07 01:37 | 51.18004 | 1.26687 | 24944 ft | 460 kts | 107° |
| 2026-05-07 01:38 | 51.17081 | 1.31580 | 25272 ft | 462 kts | 107° |
| 2026-05-07 01:38 | 51.16269 | 1.36542 | 25578 ft | 465 kts | 98° |
| 2026-05-07 01:38 | 51.15969 | 1.41688 | 25856 ft | 467 kts | 94° |
| 2026-05-07 01:38 | 51.15738 | 1.46856 | 26201 ft | 469 kts | 94° |
| 2026-05-07 01:39 | 51.15505 | 1.52050 | 26498 ft | 471 kts | 94° |
| 2026-05-07 01:39 | 51.15246 | 1.57266 | 26808 ft | 473 kts | 95° |
| 2026-05-07 01:39 | 51.14979 | 1.62503 | 27104 ft | 476 kts | 95° |
| 2026-05-07 01:39 | 51.14724 | 1.67693 | 27399 ft | 477 kts | 94° |
| 2026-05-07 01:40 | 51.14463 | 1.73049 | 27699 ft | 479 kts | 95° |
| 2026-05-07 01:40 | 51.14200 | 1.78276 | 27991 ft | 481 kts | 95° |
| 2026-05-07 01:40 | 51.13925 | 1.83603 | 28282 ft | 483 kts | 95° |
| 2026-05-07 01:40 | 51.13651 | 1.88943 | 28559 ft | 485 kts | 95° |
| 2026-05-07 01:41 | 51.13375 | 1.94310 | 28840 ft | 487 kts | 95° |
| 2026-05-07 01:41 | 51.13094 | 1.99698 | 29125 ft | 489 kts | 95° |
| 2026-05-07 01:41 | 51.12808 | 2.05108 | 29372 ft | 491 kts | 95° |
| 2026-05-07 01:41 | 51.12519 | 2.10528 | 29651 ft | 492 kts | 95° |
| 2026-05-07 01:42 | 51.12227 | 2.15976 | 29909 ft | 494 kts | 95° |
| 2026-05-07 01:42 | 51.11932 | 2.21441 | 30165 ft | 495 kts | 95° |
| 2026-05-07 01:42 | 51.11633 | 2.26908 | 30375 ft | 497 kts | 95° |
| 2026-05-07 01:42 | 51.11330 | 2.32396 | 30588 ft | 498 kts | 95° |
| 2026-05-07 01:43 | 51.11025 | 2.37893 | 30788 ft | 500 kts | 95° |
| 2026-05-07 01:43 | 51.10720 | 2.43343 | 30989 ft | 501 kts | 95° |
| 2026-05-07 01:43 | 51.10407 | 2.48869 | 31197 ft | 502 kts | 95° |
| 2026-05-07 01:43 | 51.10091 | 2.54407 | 31479 ft | 502 kts | 95° |
| 2026-05-07 01:44 | 51.09774 | 2.59934 | 31769 ft | 501 kts | 95° |
| 2026-05-07 01:44 | 51.09372 | 2.65429 | 32022 ft | 501 kts | 103° |
| 2026-05-07 01:44 | 51.08476 | 2.70782 | 32249 ft | 500 kts | 106° |
| 2026-05-07 01:44 | 51.07503 | 2.76102 | 32522 ft | 500 kts | 107° |
| 2026-05-07 01:45 | 51.06526 | 2.81405 | 32798 ft | 500 kts | 106° |
| 2026-05-07 01:45 | 51.05566 | 2.86713 | 33065 ft | 499 kts | 106° |
| 2026-05-07 01:45 | 51.04611 | 2.92009 | 33331 ft | 499 kts | 106° |
| 2026-05-07 01:45 | 51.03641 | 2.97310 | 33592 ft | 499 kts | 106° |
| 2026-05-07 01:46 | 51.02666 | 3.02598 | 33865 ft | 498 kts | 106° |
| 2026-05-07 01:46 | 51.01696 | 3.07873 | 34108 ft | 498 kts | 106° |
| 2026-05-07 01:46 | 51.00725 | 3.13154 | 34302 ft | 498 kts | 106° |
| 2026-05-07 01:46 | 50.99749 | 3.18440 | 34484 ft | 498 kts | 106° |
| 2026-05-07 01:47 | 50.98769 | 3.23711 | 34711 ft | 498 kts | 106° |
| 2026-05-07 01:47 | 50.97789 | 3.28979 | 34928 ft | 497 kts | 107° |
| 2026-05-07 01:47 | 50.96807 | 3.34251 | 34976 ft | 500 kts | 107° |
| 2026-05-07 01:48 | 50.94843 | 3.44736 | 34981 ft | 497 kts | 107° |
| 2026-05-07 01:48 | 50.92870 | 3.55212 | 34979 ft | 496 kts | 107° |
| 2026-05-07 01:49 | 50.90888 | 3.65676 | 34983 ft | 496 kts | 107° |
| 2026-05-07 01:49 | 50.88872 | 3.76123 | 34984 ft | 495 kts | 107° |
| 2026-05-07 01:50 | 50.86856 | 3.86551 | 34980 ft | 495 kts | 107° |
| 2026-05-07 01:50 | 50.84844 | 3.96890 | 34982 ft | 494 kts | 107° |
| 2026-05-07 01:51 | 50.82816 | 4.07257 | 34982 ft | 492 kts | 107° |
| 2026-05-07 01:51 | 50.80783 | 4.17595 | 34983 ft | 492 kts | 107° |
| 2026-05-07 01:52 | 50.78739 | 4.27930 | 34984 ft | 492 kts | 107° |
| 2026-05-07 01:52 | 50.76688 | 4.38252 | 34988 ft | 493 kts | 107° |
| 2026-05-07 01:53 | 50.74624 | 4.48579 | 34989 ft | 493 kts | 107° |
| 2026-05-07 01:53 | 50.72552 | 4.58891 | 34987 ft | 492 kts | 107° |
| 2026-05-07 01:54 | 50.70549 | 4.69144 | 34985 ft | 491 kts | 106° |
| 2026-05-07 01:54 | 50.68565 | 4.79462 | 34981 ft | 491 kts | 107° |
| 2026-05-07 01:55 | 50.66543 | 4.89739 | 34975 ft | 490 kts | 107° |
| 2026-05-07 01:55 | 50.64482 | 4.99989 | 34975 ft | 490 kts | 108° |
| 2026-05-07 01:56 | 50.62352 | 5.10213 | 34982 ft | 492 kts | 108° |
| 2026-05-07 01:56 | 50.60251 | 5.20468 | 34990 ft | 493 kts | 108° |
| 2026-05-07 01:57 | 50.58111 | 5.30715 | 34996 ft | 493 kts | 108° |
| 2026-05-07 01:57 | 50.55980 | 5.40954 | 34995 ft | 491 kts | 108° |
| 2026-05-07 01:58 | 50.53851 | 5.51080 | 34991 ft | 491 kts | 108° |
| 2026-05-07 01:58 | 50.51706 | 5.61281 | 34983 ft | 491 kts | 107° |
| 2026-05-07 01:59 | 50.50264 | 5.71772 | 34975 ft | 493 kts | 101° |
| 2026-05-07 01:59 | 50.48915 | 5.82318 | 34968 ft | 493 kts | 102° |
| 2026-05-07 02:00 | 50.47527 | 5.92871 | 34955 ft | 494 kts | 102° |
| 2026-05-07 02:00 | 50.46148 | 6.03423 | 34947 ft | 494 kts | 102° |
| 2026-05-07 02:01 | 50.44754 | 6.13922 | 34944 ft | 494 kts | 102° |
| 2026-05-07 02:01 | 50.43347 | 6.24482 | 34940 ft | 494 kts | 102° |
| 2026-05-07 02:02 | 50.41930 | 6.35025 | 34932 ft | 494 kts | 102° |
| 2026-05-07 02:02 | 50.41138 | 6.43866 | 34927 ft | 494 kts | 97° |
| 2026-05-07 02:03 | 50.40337 | 6.54566 | 34919 ft | 493 kts | 97° |
| 2026-05-07 02:03 | 50.39504 | 6.65229 | 34914 ft | 492 kts | 97° |
| 2026-05-07 02:04 | 50.38677 | 6.75886 | 34909 ft | 493 kts | 97° |
| 2026-05-07 02:04 | 50.37830 | 6.86557 | 34909 ft | 493 kts | 98° |
| 2026-05-07 02:05 | 50.36979 | 6.97224 | 34907 ft | 494 kts | 98° |
| 2026-05-07 02:05 | 50.36113 | 7.07901 | 34908 ft | 494 kts | 98° |
| 2026-05-07 02:06 | 50.35245 | 7.18509 | 34911 ft | 495 kts | 98° |
| 2026-05-07 02:06 | 50.34358 | 7.29205 | 34910 ft | 495 kts | 98° |
| 2026-05-07 02:07 | 50.33463 | 7.39890 | 34911 ft | 495 kts | 98° |
| 2026-05-07 02:07 | 50.32103 | 7.55888 | 34906 ft | 493 kts | 98° |
| 2026-05-07 02:08 | 50.31191 | 7.66471 | 34898 ft | 493 kts | 98° |
| 2026-05-07 02:08 | 50.30266 | 7.77093 | 34898 ft | 493 kts | 98° |
| 2026-05-07 02:09 | 50.29328 | 7.87742 | 34900 ft | 494 kts | 99° |
| 2026-05-07 02:09 | 50.28410 | 7.98399 | 34914 ft | 494 kts | 98° |
| 2026-05-07 02:10 | 50.27542 | 8.09054 | 34910 ft | 494 kts | 98° |
| 2026-05-07 02:10 | 50.26625 | 8.19698 | 34909 ft | 493 kts | 98° |
| 2026-05-07 02:11 | 50.25730 | 8.30249 | 34902 ft | 493 kts | 99° |
| 2026-05-07 02:11 | 50.24806 | 8.40869 | 34904 ft | 493 kts | 99° |
| 2026-05-07 02:12 | 50.23879 | 8.51490 | 34909 ft | 493 kts | 99° |
| 2026-05-07 02:12 | 50.22938 | 8.62103 | 34906 ft | 493 kts | 99° |
| 2026-05-07 02:13 | 50.21991 | 8.72708 | 34898 ft | 493 kts | 99° |
| 2026-05-07 02:13 | 50.21032 | 8.83314 | 34896 ft | 493 kts | 99° |
| 2026-05-07 02:14 | 50.20063 | 8.93922 | 34891 ft | 494 kts | 99° |
| 2026-05-07 02:14 | 50.19083 | 9.04549 | 34885 ft | 495 kts | 99° |
| 2026-05-07 02:15 | 50.18093 | 9.15165 | 34874 ft | 494 kts | 99° |
| 2026-05-07 02:15 | 50.17094 | 9.25780 | 34875 ft | 495 kts | 100° |
| 2026-05-07 02:16 | 50.16082 | 9.36411 | 34867 ft | 495 kts | 100° |
| 2026-05-07 02:16 | 50.15069 | 9.46961 | 34862 ft | 495 kts | 100° |
| 2026-05-07 02:17 | 50.14040 | 9.57571 | 34865 ft | 495 kts | 100° |
| 2026-05-07 02:17 | 50.13000 | 9.68187 | 34862 ft | 495 kts | 101° |
| 2026-05-07 02:18 | 50.11949 | 9.78809 | 34860 ft | 495 kts | 101° |
| 2026-05-07 02:18 | 50.10897 | 9.89343 | 34863 ft | 495 kts | 101° |
| 2026-05-07 02:19 | 50.09828 | 9.99934 | 34859 ft | 495 kts | 101° |
| 2026-05-07 02:19 | 50.08751 | 10.10524 | 34857 ft | 495 kts | 101° |
| 2026-05-07 02:20 | 50.07662 | 10.21127 | 34857 ft | 495 kts | 102° |
| 2026-05-07 02:20 | 50.07350 | 10.26472 | 34886 ft | 497 kts | 91° |
| 2026-05-07 02:20 | 50.07372 | 10.31866 | 34870 ft | 499 kts | 92° |
| 2026-05-07 02:21 | 50.07433 | 10.42681 | 34872 ft | 499 kts | 92° |
| 2026-05-07 02:21 | 50.07470 | 10.53477 | 34865 ft | 499 kts | 93° |
| 2026-05-07 02:22 | 50.07503 | 10.64278 | 34867 ft | 499 kts | 93° |
| 2026-05-07 02:22 | 50.07008 | 10.74976 | 34875 ft | 492 kts | 109° |
| 2026-05-07 02:23 | 50.04964 | 10.85089 | 34866 ft | 490 kts | 112° |
| 2026-05-07 02:23 | 50.02825 | 10.95128 | 34867 ft | 488 kts | 112° |
| 2026-05-07 02:24 | 50.00701 | 11.05166 | 34870 ft | 488 kts | 112° |
| 2026-05-07 02:24 | 49.98556 | 11.15193 | 34878 ft | 489 kts | 112° |
| 2026-05-07 02:25 | 49.96423 | 11.25149 | 34865 ft | 489 kts | 112° |
| 2026-05-07 02:25 | 49.94303 | 11.35187 | 34858 ft | 489 kts | 112° |
| 2026-05-07 02:26 | 49.92303 | 11.45293 | 34866 ft | 490 kts | 110° |
| 2026-05-07 02:26 | 49.90407 | 11.55458 | 34857 ft | 490 kts | 111° |
| 2026-05-07 02:27 | 49.88542 | 11.65645 | 34852 ft | 491 kts | 110° |
| 2026-05-07 02:27 | 49.87421 | 11.76150 | 34858 ft | 497 kts | 103° |
| 2026-05-07 02:28 | 49.86480 | 11.86768 | 34855 ft | 496 kts | 102° |
| 2026-05-07 02:28 | 49.85533 | 11.97361 | 34850 ft | 497 kts | 103° |
| 2026-05-07 02:29 | 49.84576 | 12.07967 | 34842 ft | 496 kts | 103° |
| 2026-05-07 02:29 | 49.83616 | 12.18561 | 34844 ft | 497 kts | 103° |
| 2026-05-07 02:30 | 49.82642 | 12.29150 | 34839 ft | 496 kts | 103° |
| 2026-05-07 02:30 | 49.81670 | 12.39738 | 34843 ft | 497 kts | 103° |
| 2026-05-07 02:31 | 49.80291 | 12.50068 | 34864 ft | 490 kts | 112° |
| 2026-05-07 02:31 | 49.78276 | 12.60191 | 34858 ft | 492 kts | 112° |
| 2026-05-07 02:32 | 49.76246 | 12.70311 | 34857 ft | 492 kts | 112° |
| 2026-05-07 02:32 | 49.74216 | 12.80407 | 34859 ft | 492 kts | 112° |
| 2026-05-07 02:33 | 49.72172 | 12.90498 | 34861 ft | 492 kts | 113° |
| 2026-05-07 02:33 | 49.70120 | 13.00590 | 34866 ft | 492 kts | 113° |
| 2026-05-07 02:34 | 49.68054 | 13.10689 | 34872 ft | 493 kts | 113° |
| 2026-05-07 02:34 | 49.65980 | 13.20785 | 34880 ft | 494 kts | 113° |
| 2026-05-07 02:35 | 49.63895 | 13.30878 | 34878 ft | 493 kts | 113° |
| 2026-05-07 02:35 | 49.61814 | 13.40896 | 34875 ft | 494 kts | 114° |
| 2026-05-07 02:36 | 49.59711 | 13.50979 | 34870 ft | 494 kts | 114° |
| 2026-05-07 02:36 | 49.57597 | 13.61061 | 34865 ft | 495 kts | 114° |
| 2026-05-07 02:37 | 49.55471 | 13.71148 | 34858 ft | 495 kts | 114° |
| 2026-05-07 02:37 | 49.53337 | 13.81224 | 34853 ft | 495 kts | 114° |
| 2026-05-07 02:38 | 49.51192 | 13.91302 | 34853 ft | 496 kts | 114° |
| 2026-05-07 02:38 | 49.49035 | 14.01383 | 34853 ft | 496 kts | 114° |
| 2026-05-07 02:39 | 49.46870 | 14.11453 | 34861 ft | 496 kts | 114° |
| 2026-05-07 02:39 | 49.44695 | 14.21522 | 34855 ft | 496 kts | 115° |
| 2026-05-07 02:40 | 49.42518 | 14.31549 | 34851 ft | 498 kts | 115° |
| 2026-05-07 02:40 | 49.40320 | 14.41627 | 34850 ft | 497 kts | 115° |
| 2026-05-07 02:41 | 49.38109 | 14.51711 | 34849 ft | 498 kts | 115° |
| 2026-05-07 02:41 | 49.35888 | 14.61792 | 34847 ft | 499 kts | 115° |
| 2026-05-07 02:42 | 49.33654 | 14.71885 | 34852 ft | 500 kts | 115° |
| 2026-05-07 02:42 | 49.31405 | 14.81994 | 34862 ft | 502 kts | 116° |
| 2026-05-07 02:43 | 49.29155 | 14.92065 | 34855 ft | 503 kts | 116° |
| 2026-05-07 02:43 | 49.26865 | 15.02262 | 34852 ft | 503 kts | 116° |
| 2026-05-07 02:44 | 49.24590 | 15.12340 | 34859 ft | 503 kts | 116° |
| 2026-05-07 02:44 | 49.22295 | 15.22464 | 34853 ft | 504 kts | 116° |
| 2026-05-07 02:45 | 49.19984 | 15.32607 | 34854 ft | 505 kts | 116° |
| 2026-05-07 02:45 | 49.17660 | 15.42757 | 34849 ft | 505 kts | 116° |
| 2026-05-07 02:46 | 49.15345 | 15.52824 | 34858 ft | 505 kts | 116° |
| 2026-05-07 02:46 | 49.13003 | 15.62955 | 34847 ft | 506 kts | 116° |
| 2026-05-07 02:47 | 49.10652 | 15.73082 | 34846 ft | 505 kts | 116° |
| 2026-05-07 02:47 | 49.08296 | 15.83182 | 34848 ft | 505 kts | 116° |
| 2026-05-07 02:48 | 49.05928 | 15.93285 | 34848 ft | 505 kts | 116° |
| 2026-05-07 02:48 | 49.03954 | 16.01670 | 34847 ft | 505 kts | 116° |
| 2026-05-07 02:49 | 49.01576 | 16.11731 | 34848 ft | 505 kts | 116° |
| 2026-05-07 02:49 | 48.98801 | 16.23409 | 34850 ft | 504 kts | 116° |
| 2026-05-07 02:50 | 48.96403 | 16.33451 | 34850 ft | 505 kts | 116° |
| 2026-05-07 02:50 | 48.94402 | 16.41798 | 34851 ft | 504 kts | 116° |
| 2026-05-07 02:51 | 48.91989 | 16.51820 | 34850 ft | 504 kts | 116° |
| 2026-05-07 02:51 | 48.89572 | 16.61814 | 34855 ft | 504 kts | 116° |
| 2026-05-07 02:52 | 48.87146 | 16.71797 | 34858 ft | 503 kts | 116° |
| 2026-05-07 02:52 | 48.84722 | 16.81731 | 34854 ft | 501 kts | 116° |
| 2026-05-07 02:53 | 48.82285 | 16.91666 | 34856 ft | 503 kts | 116° |
| 2026-05-07 02:53 | 48.79836 | 17.01615 | 34854 ft | 503 kts | 116° |
| 2026-05-07 02:54 | 48.76889 | 17.11100 | 34870 ft | 493 kts | 130° |
| 2026-05-07 02:54 | 48.73087 | 17.19774 | 34865 ft | 494 kts | 129° |
| 2026-05-07 02:55 | 48.69273 | 17.28449 | 34874 ft | 494 kts | 129° |
| 2026-05-07 02:55 | 48.65462 | 17.37098 | 34876 ft | 494 kts | 129° |
| 2026-05-07 02:56 | 48.61646 | 17.45721 | 34872 ft | 493 kts | 129° |
| 2026-05-07 02:56 | 48.57856 | 17.54265 | 34870 ft | 492 kts | 129° |
| 2026-05-07 02:57 | 48.54046 | 17.62824 | 34872 ft | 491 kts | 129° |
| 2026-05-07 02:57 | 48.50232 | 17.71365 | 34872 ft | 491 kts | 129° |
| 2026-05-07 02:58 | 48.46405 | 17.79908 | 34876 ft | 490 kts | 129° |
| 2026-05-07 02:58 | 48.42584 | 17.88412 | 34874 ft | 490 kts | 129° |
| 2026-05-07 02:59 | 48.38761 | 17.96891 | 34878 ft | 490 kts | 129° |
| 2026-05-07 02:59 | 48.34923 | 18.05380 | 34878 ft | 490 kts | 129° |
| 2026-05-07 03:00 | 48.31099 | 18.13809 | 34879 ft | 491 kts | 129° |
| 2026-05-07 03:00 | 48.27243 | 18.22285 | 34878 ft | 490 kts | 129° |
| 2026-05-07 03:01 | 48.23384 | 18.30737 | 34886 ft | 491 kts | 129° |
| 2026-05-07 03:01 | 48.19511 | 18.39198 | 34884 ft | 492 kts | 129° |
| 2026-05-07 03:02 | 48.15626 | 18.47656 | 34888 ft | 493 kts | 129° |
| 2026-05-07 03:02 | 48.11755 | 18.56059 | 34891 ft | 493 kts | 129° |
| 2026-05-07 03:03 | 48.07847 | 18.64513 | 34896 ft | 494 kts | 129° |
| 2026-05-07 03:03 | 48.03928 | 18.72967 | 34898 ft | 494 kts | 129° |
| 2026-05-07 03:04 | 48.00002 | 18.81410 | 34898 ft | 495 kts | 129° |
| 2026-05-07 03:04 | 47.96072 | 18.89836 | 34911 ft | 493 kts | 129° |
| 2026-05-07 03:05 | 47.92143 | 18.98231 | 34918 ft | 494 kts | 129° |
| 2026-05-07 03:05 | 47.88228 | 19.06573 | 34919 ft | 494 kts | 129° |
| 2026-05-07 03:06 | 47.84277 | 19.14965 | 34913 ft | 495 kts | 129° |
| 2026-05-07 03:06 | 47.80321 | 19.23342 | 34913 ft | 495 kts | 129° |
| 2026-05-07 03:07 | 47.76355 | 19.31714 | 34915 ft | 496 kts | 129° |
| 2026-05-07 03:07 | 47.72376 | 19.40089 | 34910 ft | 497 kts | 129° |
| 2026-05-07 03:08 | 47.68378 | 19.48477 | 34920 ft | 498 kts | 129° |
| 2026-05-07 03:08 | 47.64371 | 19.56860 | 34917 ft | 497 kts | 129° |
| 2026-05-07 03:09 | 47.60362 | 19.65221 | 34917 ft | 498 kts | 129° |
| 2026-05-07 03:09 | 47.56343 | 19.73577 | 34917 ft | 498 kts | 129° |
| 2026-05-07 03:10 | 47.52317 | 19.81921 | 34916 ft | 498 kts | 129° |
| 2026-05-07 03:10 | 47.48280 | 19.90264 | 34917 ft | 499 kts | 129° |
| 2026-05-07 03:11 | 47.44232 | 19.98603 | 34917 ft | 500 kts | 129° |
| 2026-05-07 03:11 | 47.40261 | 20.06761 | 34921 ft | 499 kts | 129° |
| 2026-05-07 03:12 | 47.36200 | 20.15077 | 34927 ft | 500 kts | 129° |
| 2026-05-07 03:12 | 47.32131 | 20.23385 | 34927 ft | 500 kts | 129° |
| 2026-05-07 03:13 | 47.28053 | 20.31686 | 34931 ft | 499 kts | 129° |
| 2026-05-07 03:13 | 47.23971 | 20.39970 | 34931 ft | 500 kts | 129° |
| 2026-05-07 03:14 | 47.19906 | 20.48194 | 34933 ft | 500 kts | 129° |
| 2026-05-07 03:15 | 47.13755 | 20.60595 | 34934 ft | 501 kts | 129° |
| 2026-05-07 03:15 | 47.09639 | 20.68860 | 34934 ft | 501 kts | 129° |
| 2026-05-07 03:16 | 47.05510 | 20.77129 | 34941 ft | 502 kts | 129° |
| 2026-05-07 03:16 | 47.01368 | 20.85397 | 34940 ft | 503 kts | 129° |
| 2026-05-07 03:17 | 46.97243 | 20.93608 | 34941 ft | 504 kts | 129° |
| 2026-05-07 03:17 | 46.93081 | 21.01867 | 34941 ft | 504 kts | 129° |
| 2026-05-07 03:18 | 46.88906 | 21.10129 | 34942 ft | 506 kts | 129° |
| 2026-05-07 03:18 | 46.84714 | 21.18399 | 34943 ft | 506 kts | 129° |
| 2026-05-07 03:19 | 46.80506 | 21.26674 | 34941 ft | 508 kts | 129° |
| 2026-05-07 03:19 | 46.76283 | 21.34955 | 34944 ft | 509 kts | 129° |
| 2026-05-07 03:20 | 46.72045 | 21.43241 | 34940 ft | 511 kts | 129° |
| 2026-05-07 03:20 | 46.68003 | 21.51743 | 34991 ft | 513 kts | 118° |
| 2026-05-07 03:21 | 46.64723 | 21.60931 | 34958 ft | 514 kts | 119° |
| 2026-05-07 03:21 | 46.61417 | 21.70151 | 34955 ft | 514 kts | 120° |
| 2026-05-07 03:22 | 46.58096 | 21.79367 | 34957 ft | 514 kts | 120° |
| 2026-05-07 03:22 | 46.54773 | 21.88570 | 34954 ft | 514 kts | 120° |
| 2026-05-07 03:23 | 46.51438 | 21.97766 | 34954 ft | 514 kts | 120° |
| 2026-05-07 03:23 | 46.48100 | 22.06945 | 34960 ft | 514 kts | 120° |
| 2026-05-07 03:24 | 46.44749 | 22.16121 | 34959 ft | 515 kts | 120° |
| 2026-05-07 03:24 | 46.41383 | 22.25313 | 34969 ft | 516 kts | 120° |
| 2026-05-07 03:25 | 46.38012 | 22.34483 | 34990 ft | 516 kts | 120° |
| 2026-05-07 03:25 | 46.34649 | 22.43603 | 34994 ft | 517 kts | 120° |
| 2026-05-07 03:26 | 46.31251 | 22.52786 | 35001 ft | 518 kts | 120° |
| 2026-05-07 03:26 | 46.27843 | 22.61964 | 35006 ft | 518 kts | 120° |
| 2026-05-07 03:27 | 46.24426 | 22.71136 | 35010 ft | 518 kts | 120° |
| 2026-05-07 03:27 | 46.21001 | 22.80298 | 35014 ft | 518 kts | 120° |
| 2026-05-07 03:28 | 46.17566 | 22.89455 | 35010 ft | 518 kts | 120° |
| 2026-05-07 03:28 | 46.14126 | 22.98593 | 35011 ft | 518 kts | 120° |
| 2026-05-07 03:29 | 46.10705 | 23.07654 | 35011 ft | 518 kts | 120° |
| 2026-05-07 03:29 | 46.07257 | 23.16752 | 35014 ft | 517 kts | 120° |
| 2026-05-07 03:30 | 46.03801 | 23.25844 | 35010 ft | 517 kts | 120° |
| 2026-05-07 03:30 | 46.00339 | 23.34921 | 35012 ft | 517 kts | 120° |
| 2026-05-07 03:31 | 45.96873 | 23.43976 | 35013 ft | 516 kts | 120° |
| 2026-05-07 03:31 | 45.93404 | 23.53013 | 35012 ft | 516 kts | 120° |
| 2026-05-07 03:32 | 45.89928 | 23.62034 | 35022 ft | 516 kts | 120° |
| 2026-05-07 03:32 | 45.86463 | 23.70999 | 35021 ft | 517 kts | 120° |
| 2026-05-07 03:33 | 45.82969 | 23.80011 | 35022 ft | 517 kts | 120° |
| 2026-05-07 03:33 | 45.79463 | 23.89023 | 35018 ft | 517 kts | 120° |
| 2026-05-07 03:34 | 45.75956 | 23.98006 | 35015 ft | 515 kts | 120° |
| 2026-05-07 03:34 | 45.72454 | 24.06949 | 35018 ft | 514 kts | 120° |
| 2026-05-07 03:35 | 45.69163 | 24.15327 | 35016 ft | 514 kts | 120° |
| 2026-05-07 03:35 | 45.65674 | 24.24180 | 35027 ft | 513 kts | 120° |
| 2026-05-07 03:36 | 45.62158 | 24.33074 | 35033 ft | 514 kts | 120° |
| 2026-05-07 03:36 | 45.58632 | 24.41964 | 35044 ft | 513 kts | 121° |
| 2026-05-07 03:37 | 45.55106 | 24.50828 | 35059 ft | 513 kts | 121° |
| 2026-05-07 03:37 | 45.51574 | 24.59675 | 35068 ft | 513 kts | 121° |
| 2026-05-07 03:38 | 45.48058 | 24.68458 | 35076 ft | 513 kts | 121° |
| 2026-05-07 03:38 | 45.44517 | 24.77273 | 35072 ft | 512 kts | 121° |
| 2026-05-07 03:39 | 45.41547 | 24.84644 | 35078 ft | 512 kts | 121° |
| 2026-05-07 03:39 | 45.37998 | 24.93429 | 35087 ft | 511 kts | 121° |
| 2026-05-07 03:40 | 45.34449 | 25.02184 | 35094 ft | 511 kts | 121° |
| 2026-05-07 03:40 | 45.30921 | 25.10864 | 35093 ft | 510 kts | 121° |
| 2026-05-07 03:41 | 45.27363 | 25.19586 | 35094 ft | 510 kts | 121° |
| 2026-05-07 03:41 | 45.23801 | 25.28294 | 35092 ft | 510 kts | 121° |
| 2026-05-07 03:42 | 45.20234 | 25.36986 | 35094 ft | 509 kts | 121° |
| 2026-05-07 03:42 | 45.16663 | 25.45660 | 35095 ft | 509 kts | 121° |
| 2026-05-07 03:43 | 45.13090 | 25.54312 | 35093 ft | 509 kts | 121° |
| 2026-05-07 03:43 | 45.09508 | 25.62961 | 35093 ft | 509 kts | 121° |
| 2026-05-07 03:44 | 45.05919 | 25.71598 | 35097 ft | 509 kts | 121° |
| 2026-05-07 03:44 | 45.02347 | 25.80170 | 35093 ft | 510 kts | 121° |
| 2026-05-07 03:45 | 44.98735 | 25.88811 | 35088 ft | 511 kts | 121° |
| 2026-05-07 03:45 | 44.95114 | 25.97446 | 35087 ft | 510 kts | 121° |
| 2026-05-07 03:46 | 44.91489 | 26.06064 | 35085 ft | 510 kts | 121° |
| 2026-05-07 03:46 | 44.87859 | 26.14668 | 35082 ft | 510 kts | 121° |
| 2026-05-07 03:47 | 44.84225 | 26.23257 | 35079 ft | 510 kts | 121° |
| 2026-05-07 03:47 | 44.80585 | 26.31834 | 35073 ft | 510 kts | 121° |
| 2026-05-07 03:48 | 44.76965 | 26.40336 | 35078 ft | 510 kts | 121° |
| 2026-05-07 03:48 | 44.73313 | 26.48887 | 35074 ft | 510 kts | 121° |
| 2026-05-07 03:49 | 44.69649 | 26.57442 | 35077 ft | 510 kts | 121° |
| 2026-05-07 03:49 | 44.65981 | 26.65982 | 35074 ft | 510 kts | 121° |
| 2026-05-07 03:50 | 44.62303 | 26.74517 | 35081 ft | 511 kts | 121° |
| 2026-05-07 03:50 | 44.58614 | 26.83054 | 35080 ft | 511 kts | 121° |
| 2026-05-07 03:51 | 44.54926 | 26.91562 | 35078 ft | 510 kts | 121° |
| 2026-05-07 03:51 | 44.51261 | 26.99992 | 35080 ft | 511 kts | 121° |
| 2026-05-07 03:52 | 44.47554 | 27.08493 | 35080 ft | 511 kts | 121° |
| 2026-05-07 03:52 | 44.43841 | 27.16984 | 35083 ft | 512 kts | 121° |
| 2026-05-07 03:53 | 44.40115 | 27.25478 | 35090 ft | 512 kts | 121° |
| 2026-05-07 03:53 | 44.36383 | 27.33961 | 35087 ft | 512 kts | 121° |
| 2026-05-07 03:54 | 44.32634 | 27.42459 | 35078 ft | 513 kts | 121° |
| 2026-05-07 03:54 | 44.28879 | 27.50943 | 35087 ft | 514 kts | 120° |
| 2026-05-07 03:55 | 44.25138 | 27.59373 | 35091 ft | 515 kts | 120° |
| 2026-05-07 03:55 | 44.21355 | 27.67870 | 35091 ft | 515 kts | 120° |
| 2026-05-07 03:56 | 44.17572 | 27.76345 | 35094 ft | 515 kts | 120° |
| 2026-05-07 03:56 | 44.13776 | 27.84822 | 35092 ft | 515 kts | 120° |
| 2026-05-07 03:57 | 44.09973 | 27.93291 | 35100 ft | 516 kts | 120° |
| 2026-05-07 03:57 | 44.06156 | 28.01764 | 35099 ft | 517 kts | 120° |
| 2026-05-07 03:58 | 44.02358 | 28.10173 | 35105 ft | 517 kts | 120° |
| 2026-05-07 03:58 | 43.98523 | 28.18637 | 35103 ft | 517 kts | 120° |
| 2026-05-07 03:59 | 43.94677 | 28.27102 | 35105 ft | 518 kts | 120° |
| 2026-05-07 03:59 | 43.90816 | 28.35575 | 35108 ft | 519 kts | 120° |
| 2026-05-07 04:00 | 43.86946 | 28.44042 | 35115 ft | 520 kts | 120° |
| 2026-05-07 04:00 | 43.83088 | 28.52458 | 35119 ft | 520 kts | 120° |
| 2026-05-07 04:01 | 43.79204 | 28.60907 | 35125 ft | 520 kts | 120° |
| 2026-05-07 04:01 | 43.75314 | 28.69346 | 35135 ft | 520 kts | 120° |
| 2026-05-07 04:02 | 43.71416 | 28.77775 | 35136 ft | 520 kts | 120° |
| 2026-05-07 04:02 | 43.67292 | 28.85985 | 35135 ft | 521 kts | 123° |
| 2026-05-07 04:03 | 43.63067 | 28.94118 | 35137 ft | 521 kts | 123° |
| 2026-05-07 04:03 | 43.58804 | 29.02215 | 35140 ft | 520 kts | 123° |
| 2026-05-07 04:04 | 43.54557 | 29.10305 | 35140 ft | 521 kts | 123° |
| 2026-05-07 04:04 | 43.50293 | 29.18381 | 35141 ft | 520 kts | 124° |
| 2026-05-07 04:05 | 43.46040 | 29.26426 | 35141 ft | 520 kts | 124° |
| 2026-05-07 04:05 | 43.41808 | 29.34405 | 35127 ft | 520 kts | 124° |
| 2026-05-07 04:06 | 43.37541 | 29.42428 | 35134 ft | 519 kts | 124° |
| 2026-05-07 04:06 | 43.33274 | 29.50431 | 35137 ft | 519 kts | 124° |
| 2026-05-07 04:07 | 43.29005 | 29.58414 | 35140 ft | 517 kts | 124° |
| 2026-05-07 04:07 | 43.24744 | 29.66363 | 35141 ft | 516 kts | 124° |
| 2026-05-07 04:08 | 43.20487 | 29.74283 | 35142 ft | 515 kts | 124° |
| 2026-05-07 04:08 | 43.16257 | 29.82131 | 35144 ft | 515 kts | 124° |
| 2026-05-07 04:09 | 43.11993 | 29.90019 | 35142 ft | 515 kts | 124° |
| 2026-05-07 04:09 | 43.07719 | 29.97908 | 35128 ft | 516 kts | 124° |
| 2026-05-07 04:10 | 43.03440 | 30.05783 | 35135 ft | 516 kts | 124° |
| 2026-05-07 04:10 | 42.99156 | 30.13648 | 35137 ft | 515 kts | 124° |
| 2026-05-07 04:11 | 42.94868 | 30.21498 | 35139 ft | 515 kts | 124° |
| 2026-05-07 04:11 | 42.90572 | 30.29342 | 35140 ft | 515 kts | 124° |
| 2026-05-07 04:12 | 42.86302 | 30.37119 | 35142 ft | 516 kts | 124° |
| 2026-05-07 04:12 | 42.81992 | 30.44947 | 35145 ft | 516 kts | 124° |
| 2026-05-07 04:13 | 42.77681 | 30.52757 | 35142 ft | 516 kts | 124° |
| 2026-05-07 04:13 | 42.74153 | 30.61130 | 35160 ft | 508 kts | 104° |
| 2026-05-07 04:14 | 42.72789 | 30.70450 | 35150 ft | 502 kts | 94° |
| 2026-05-07 04:14 | 42.71850 | 30.79847 | 35146 ft | 501 kts | 94° |
| 2026-05-07 04:15 | 42.70884 | 30.89234 | 35144 ft | 502 kts | 95° |
| 2026-05-07 04:15 | 42.69915 | 30.98641 | 35147 ft | 501 kts | 95° |
| 2026-05-07 04:16 | 42.68945 | 31.07966 | 35144 ft | 502 kts | 95° |
| 2026-05-07 04:16 | 42.67960 | 31.17354 | 35141 ft | 502 kts | 95° |
| 2026-05-07 04:17 | 42.66968 | 31.26739 | 35140 ft | 501 kts | 95° |
| 2026-05-07 04:17 | 42.65970 | 31.36105 | 35139 ft | 500 kts | 95° |
| 2026-05-07 04:18 | 42.64965 | 31.45463 | 35146 ft | 500 kts | 95° |
| 2026-05-07 04:18 | 42.63953 | 31.54805 | 35147 ft | 500 kts | 95° |
| 2026-05-07 04:19 | 42.62935 | 31.64141 | 35145 ft | 500 kts | 96° |
| 2026-05-07 04:19 | 42.61908 | 31.73474 | 35145 ft | 499 kts | 96° |
| 2026-05-07 04:20 | 42.60877 | 31.82784 | 35148 ft | 498 kts | 96° |
| 2026-05-07 04:20 | 42.59838 | 31.92084 | 35147 ft | 498 kts | 96° |
| 2026-05-07 04:21 | 42.58276 | 32.06013 | 35147 ft | 497 kts | 95° |
| 2026-05-07 04:21 | 42.57235 | 32.15280 | 35145 ft | 497 kts | 96° |
| 2026-05-07 04:22 | 42.56165 | 32.24535 | 35146 ft | 496 kts | 96° |
| 2026-05-07 04:22 | 42.55112 | 32.33706 | 35144 ft | 495 kts | 96° |
| 2026-05-07 04:23 | 42.54037 | 32.42919 | 35151 ft | 494 kts | 96° |
| 2026-05-07 04:23 | 42.52961 | 32.52129 | 35151 ft | 495 kts | 96° |
| 2026-05-07 04:24 | 42.51873 | 32.61340 | 35146 ft | 495 kts | 95° |
| 2026-05-07 04:24 | 42.50780 | 32.70549 | 35146 ft | 495 kts | 95° |
| 2026-05-07 04:25 | 42.49677 | 32.79757 | 35155 ft | 494 kts | 95° |
| 2026-05-07 04:25 | 42.48570 | 32.88947 | 35145 ft | 493 kts | 95° |
| 2026-05-07 04:26 | 42.47467 | 32.98041 | 35151 ft | 492 kts | 95° |
| 2026-05-07 04:26 | 42.46350 | 33.07183 | 35151 ft | 492 kts | 95° |
| 2026-05-07 04:27 | 42.45225 | 33.16325 | 35150 ft | 492 kts | 95° |
| 2026-05-07 04:27 | 42.44094 | 33.25443 | 35151 ft | 491 kts | 95° |
| 2026-05-07 04:28 | 42.42956 | 33.34562 | 35152 ft | 492 kts | 95° |
| 2026-05-07 04:28 | 42.42000 | 33.42170 | 35154 ft | 493 kts | 95° |
| 2026-05-07 04:29 | 42.40845 | 33.51309 | 35150 ft | 492 kts | 95° |
| 2026-05-07 04:29 | 42.39685 | 33.60440 | 35156 ft | 491 kts | 95° |
| 2026-05-07 04:30 | 42.38519 | 33.69555 | 35158 ft | 492 kts | 95° |
| 2026-05-07 04:30 | 42.37343 | 33.78691 | 35153 ft | 494 kts | 96° |
| 2026-05-07 04:31 | 42.36156 | 33.87840 | 35154 ft | 494 kts | 96° |
| 2026-05-07 04:31 | 42.34966 | 33.96990 | 35155 ft | 494 kts | 96° |
| 2026-05-07 04:32 | 42.33776 | 34.06088 | 35151 ft | 495 kts | 96° |
| 2026-05-07 04:32 | 42.32570 | 34.15239 | 35152 ft | 494 kts | 96° |
| 2026-05-07 04:33 | 42.31360 | 34.24382 | 35152 ft | 493 kts | 96° |
| 2026-05-07 04:33 | 42.30144 | 34.33498 | 35154 ft | 493 kts | 97° |
| 2026-05-07 04:34 | 42.28919 | 34.42624 | 35154 ft | 493 kts | 97° |
| 2026-05-07 04:34 | 42.27685 | 34.51739 | 35150 ft | 494 kts | 97° |
| 2026-05-07 04:35 | 42.26444 | 34.60861 | 35150 ft | 493 kts | 97° |
| 2026-05-07 04:35 | 42.25204 | 34.69917 | 35152 ft | 493 kts | 97° |
| 2026-05-07 04:36 | 42.23951 | 34.79013 | 35155 ft | 494 kts | 97° |
| 2026-05-07 04:36 | 42.22685 | 34.88127 | 35153 ft | 495 kts | 98° |
| 2026-05-07 04:37 | 42.21408 | 34.97257 | 35168 ft | 495 kts | 98° |
| 2026-05-07 04:37 | 42.20125 | 35.06378 | 35164 ft | 495 kts | 98° |
| 2026-05-07 04:38 | 42.18834 | 35.15496 | 35166 ft | 494 kts | 98° |
| 2026-05-07 04:38 | 42.17539 | 35.24591 | 35169 ft | 493 kts | 98° |
| 2026-05-07 04:39 | 42.16239 | 35.33671 | 35168 ft | 493 kts | 98° |
| 2026-05-07 04:39 | 42.14940 | 35.42688 | 35170 ft | 493 kts | 98° |
| 2026-05-07 04:40 | 42.13632 | 35.51738 | 35174 ft | 492 kts | 98° |
| 2026-05-07 04:40 | 42.12319 | 35.60769 | 35173 ft | 491 kts | 98° |
| 2026-05-07 04:41 | 42.11000 | 35.69795 | 35175 ft | 491 kts | 98° |
| 2026-05-07 04:41 | 42.09673 | 35.78818 | 35176 ft | 492 kts | 99° |
| 2026-05-07 04:42 | 42.08337 | 35.87845 | 35174 ft | 492 kts | 99° |
| 2026-05-07 04:42 | 42.07028 | 35.96647 | 35181 ft | 493 kts | 99° |
| 2026-05-07 04:43 | 42.05676 | 36.05682 | 35179 ft | 492 kts | 99° |
| 2026-05-07 04:43 | 42.04320 | 36.14704 | 35182 ft | 492 kts | 99° |
| 2026-05-07 04:44 | 42.02956 | 36.23713 | 35187 ft | 491 kts | 99° |
| 2026-05-07 04:44 | 42.01587 | 36.32717 | 35184 ft | 491 kts | 99° |
| 2026-05-07 04:45 | 42.00211 | 36.41714 | 35188 ft | 491 kts | 99° |
| 2026-05-07 04:45 | 41.98835 | 36.50660 | 35185 ft | 491 kts | 99° |
| 2026-05-07 04:46 | 41.97446 | 36.59637 | 35189 ft | 491 kts | 100° |
| 2026-05-07 04:46 | 41.96050 | 36.68618 | 35191 ft | 491 kts | 100° |
| 2026-05-07 04:47 | 41.94643 | 36.77615 | 35192 ft | 492 kts | 100° |
| 2026-05-07 04:47 | 41.93231 | 36.86598 | 35190 ft | 491 kts | 100° |
| 2026-05-07 04:48 | 41.91812 | 36.95572 | 35192 ft | 492 kts | 100° |
| 2026-05-07 04:48 | 41.90464 | 37.04575 | 35205 ft | 490 kts | 93° |
| 2026-05-07 04:49 | 41.90253 | 37.13665 | 35197 ft | 491 kts | 89° |
| 2026-05-07 04:49 | 41.90138 | 37.22827 | 35198 ft | 490 kts | 90° |
| 2026-05-07 04:50 | 41.89987 | 37.31970 | 35200 ft | 490 kts | 90° |
| 2026-05-07 04:50 | 41.89847 | 37.41127 | 35205 ft | 491 kts | 90° |
| 2026-05-07 04:51 | 41.89688 | 37.50287 | 35203 ft | 490 kts | 90° |
| 2026-05-07 04:51 | 41.89528 | 37.59441 | 35201 ft | 491 kts | 90° |
| 2026-05-07 04:52 | 41.89357 | 37.68629 | 35206 ft | 492 kts | 90° |
| 2026-05-07 04:52 | 41.89181 | 37.77812 | 35203 ft | 492 kts | 90° |
| 2026-05-07 04:53 | 41.88996 | 37.86998 | 35204 ft | 492 kts | 90° |
| 2026-05-07 04:53 | 41.88806 | 37.96120 | 35205 ft | 492 kts | 90° |
| 2026-05-07 04:54 | 41.88607 | 38.05313 | 35207 ft | 493 kts | 91° |
| 2026-05-07 04:54 | 41.88400 | 38.14516 | 35211 ft | 493 kts | 91° |
| 2026-05-07 04:55 | 41.88186 | 38.23722 | 35207 ft | 493 kts | 91° |
| 2026-05-07 04:55 | 41.87971 | 38.32642 | 35207 ft | 493 kts | 91° |
| 2026-05-07 04:56 | 41.87742 | 38.41841 | 35207 ft | 493 kts | 91° |
| 2026-05-07 04:56 | 41.87506 | 38.51045 | 35206 ft | 494 kts | 91° |
| 2026-05-07 04:57 | 41.87262 | 38.60263 | 35208 ft | 494 kts | 91° |
| 2026-05-07 04:57 | 41.87013 | 38.69439 | 35211 ft | 495 kts | 91° |
| 2026-05-07 04:58 | 41.86754 | 38.78654 | 35211 ft | 495 kts | 91° |
| 2026-05-07 04:58 | 41.86488 | 38.87890 | 35211 ft | 496 kts | 91° |
| 2026-05-07 04:59 | 41.86213 | 38.97156 | 35214 ft | 497 kts | 91° |
| 2026-05-07 04:59 | 41.85931 | 39.06422 | 35212 ft | 497 kts | 91° |
| 2026-05-07 05:00 | 41.85642 | 39.15672 | 35212 ft | 496 kts | 92° |
| 2026-05-07 05:00 | 41.85345 | 39.24922 | 35211 ft | 496 kts | 92° |
| 2026-05-07 05:01 | 41.85043 | 39.34118 | 35209 ft | 497 kts | 92° |
| 2026-05-07 05:01 | 41.84730 | 39.43391 | 35211 ft | 498 kts | 92° |
| 2026-05-07 05:02 | 41.84410 | 39.52672 | 35210 ft | 498 kts | 92° |
| 2026-05-07 05:02 | 41.84084 | 39.61940 | 35207 ft | 497 kts | 92° |
| 2026-05-07 05:03 | 41.83751 | 39.71209 | 35208 ft | 498 kts | 92° |
| 2026-05-07 05:03 | 41.83409 | 39.80485 | 35207 ft | 499 kts | 92° |
| 2026-05-07 05:04 | 41.83060 | 39.89771 | 35211 ft | 499 kts | 92° |
| 2026-05-07 05:04 | 41.82723 | 39.98555 | 35208 ft | 499 kts | 92° |
| 2026-05-07 05:05 | 41.82358 | 40.07856 | 35203 ft | 500 kts | 93° |
| 2026-05-07 05:05 | 41.81988 | 40.17110 | 35213 ft | 500 kts | 93° |
| 2026-05-07 05:06 | 41.81605 | 40.26437 | 35212 ft | 501 kts | 93° |
| 2026-05-07 05:06 | 41.81217 | 40.35759 | 35208 ft | 500 kts | 93° |
| 2026-05-07 05:07 | 41.80820 | 40.45076 | 35208 ft | 501 kts | 93° |
| 2026-05-07 05:07 | 41.80415 | 40.54410 | 35209 ft | 502 kts | 93° |
| 2026-05-07 05:08 | 41.80067 | 40.63762 | 35218 ft | 502 kts | 86° |
| 2026-05-07 05:08 | 41.80518 | 40.68389 | 35226 ft | 502 kts | 75° |
| 2026-05-07 05:08 | 41.81435 | 40.72911 | 35202 ft | 503 kts | 74° |
| 2026-05-07 05:09 | 41.83341 | 40.81926 | 35207 ft | 502 kts | 74° |
| 2026-05-07 05:09 | 41.85204 | 40.90901 | 35208 ft | 502 kts | 74° |
| 2026-05-07 05:10 | 41.87082 | 40.99931 | 35208 ft | 502 kts | 74° |
| 2026-05-07 05:10 | 41.88947 | 41.08960 | 35207 ft | 502 kts | 75° |
| 2026-05-07 05:11 | 41.90808 | 41.18002 | 35209 ft | 503 kts | 75° |
| 2026-05-07 05:11 | 41.92666 | 41.27069 | 35205 ft | 503 kts | 75° |
| 2026-05-07 05:12 | 41.94518 | 41.36147 | 35205 ft | 504 kts | 75° |
| 2026-05-07 05:12 | 41.96368 | 41.45256 | 35209 ft | 505 kts | 75° |
| 2026-05-07 05:13 | 41.98208 | 41.54358 | 35203 ft | 504 kts | 75° |
| 2026-05-07 05:13 | 42.00001 | 41.63266 | 35199 ft | 505 kts | 75° |
| 2026-05-07 05:14 | 42.01831 | 41.72398 | 35199 ft | 506 kts | 75° |
| 2026-05-07 05:14 | 42.03655 | 41.81544 | 35195 ft | 506 kts | 75° |
| 2026-05-07 05:15 | 42.05471 | 41.90692 | 35195 ft | 506 kts | 75° |
| 2026-05-07 05:15 | 42.07281 | 41.99847 | 35194 ft | 506 kts | 75° |
| 2026-05-07 05:16 | 42.08779 | 42.07458 | 35191 ft | 506 kts | 76° |
| 2026-05-07 05:16 | 42.10574 | 42.16616 | 35191 ft | 506 kts | 76° |
| 2026-05-07 05:17 | 42.12653 | 42.27279 | 35188 ft | 506 kts | 76° |
| 2026-05-07 05:17 | 42.14136 | 42.34916 | 35186 ft | 506 kts | 76° |
| 2026-05-07 05:18 | 42.15912 | 42.44106 | 35183 ft | 506 kts | 76° |
| 2026-05-07 05:18 | 42.17683 | 42.53314 | 35183 ft | 507 kts | 76° |
| 2026-05-07 05:19 | 42.19443 | 42.62506 | 35187 ft | 507 kts | 76° |
| 2026-05-07 05:19 | 42.21200 | 42.71724 | 35185 ft | 507 kts | 76° |
| 2026-05-07 05:20 | 42.22949 | 42.80947 | 35186 ft | 508 kts | 76° |
| 2026-05-07 05:20 | 42.24683 | 42.90134 | 35187 ft | 508 kts | 76° |
| 2026-05-07 05:21 | 42.26860 | 43.04101 | 35228 ft | 507 kts | 91° |
| 2026-05-07 05:21 | 42.26616 | 43.08847 | 35223 ft | 507 kts | 103° |
| 2026-05-07 05:22 | 42.25707 | 43.13433 | 35227 ft | 504 kts | 114° |
| 2026-05-07 05:22 | 42.22956 | 43.22135 | 35210 ft | 504 kts | 116° |
| 2026-05-07 05:23 | 42.20127 | 43.30798 | 35203 ft | 503 kts | 115° |
| 2026-05-07 05:23 | 42.17333 | 43.39453 | 35204 ft | 504 kts | 116° |
| 2026-05-07 05:24 | 42.14507 | 43.48101 | 35200 ft | 504 kts | 116° |
| 2026-05-07 05:24 | 42.11704 | 43.56697 | 35196 ft | 505 kts | 116° |
| 2026-05-07 05:25 | 42.08787 | 43.65292 | 35202 ft | 502 kts | 124° |
| 2026-05-07 05:25 | 42.04940 | 43.73125 | 35196 ft | 502 kts | 127° |
| 2026-05-07 05:26 | 42.01030 | 43.80916 | 35189 ft | 502 kts | 127° |
| 2026-05-07 05:26 | 41.97131 | 43.88709 | 35181 ft | 502 kts | 127° |
| 2026-05-07 05:27 | 41.93214 | 43.96488 | 35180 ft | 502 kts | 127° |
| 2026-05-07 05:27 | 41.89301 | 44.04257 | 35173 ft | 502 kts | 127° |
| 2026-05-07 05:28 | 41.85380 | 44.12011 | 35164 ft | 501 kts | 127° |
| 2026-05-07 05:28 | 41.81455 | 44.19760 | 35160 ft | 503 kts | 128° |
| 2026-05-07 05:29 | 41.77522 | 44.27504 | 35164 ft | 502 kts | 128° |
| 2026-05-07 05:29 | 41.73582 | 44.35238 | 35158 ft | 503 kts | 128° |
| 2026-05-07 05:30 | 41.69657 | 44.42928 | 35160 ft | 503 kts | 128° |
| 2026-05-07 05:30 | 41.65701 | 44.50656 | 35161 ft | 503 kts | 128° |
| 2026-05-07 05:31 | 41.61740 | 44.58375 | 35164 ft | 504 kts | 128° |
| 2026-05-07 05:31 | 41.57774 | 44.66085 | 35170 ft | 504 kts | 128° |
| 2026-05-07 05:32 | 41.53793 | 44.73803 | 35181 ft | 504 kts | 128° |
| 2026-05-07 05:32 | 41.49806 | 44.81515 | 35179 ft | 505 kts | 129° |
| 2026-05-07 05:33 | 41.45804 | 44.89235 | 35173 ft | 506 kts | 129° |
| 2026-05-07 05:33 | 41.41798 | 44.96945 | 35164 ft | 506 kts | 129° |
| 2026-05-07 05:34 | 41.37781 | 45.04654 | 35158 ft | 506 kts | 129° |
| 2026-05-07 05:34 | 41.34646 | 45.13115 | 35190 ft | 517 kts | 112° |
| 2026-05-07 05:35 | 41.32312 | 45.22186 | 35169 ft | 518 kts | 113° |
| 2026-05-07 05:35 | 41.30002 | 45.31201 | 35171 ft | 519 kts | 113° |
| 2026-05-07 05:36 | 41.27659 | 45.40265 | 35177 ft | 518 kts | 113° |
| 2026-05-07 05:36 | 41.25312 | 45.49332 | 35171 ft | 519 kts | 113° |
| 2026-05-07 05:37 | 41.22956 | 45.58391 | 35169 ft | 519 kts | 113° |
| 2026-05-07 05:37 | 41.20588 | 45.67464 | 35164 ft | 520 kts | 114° |
| 2026-05-07 05:38 | 41.18208 | 45.76504 | 35161 ft | 519 kts | 114° |
| 2026-05-07 05:38 | 41.15817 | 45.85566 | 35162 ft | 519 kts | 114° |
| 2026-05-07 05:39 | 41.13422 | 45.94607 | 35166 ft | 519 kts | 114° |
| 2026-05-07 05:39 | 41.11019 | 46.03643 | 35170 ft | 519 kts | 114° |
| 2026-05-07 05:40 | 41.08608 | 46.12675 | 35171 ft | 520 kts | 114° |
| 2026-05-07 05:40 | 41.06190 | 46.21703 | 35171 ft | 520 kts | 114° |
| 2026-05-07 05:41 | 41.03759 | 46.30747 | 35169 ft | 520 kts | 114° |
| 2026-05-07 05:41 | 41.01352 | 46.39788 | 35167 ft | 521 kts | 114° |
| 2026-05-07 05:42 | 40.98947 | 46.48761 | 35180 ft | 520 kts | 114° |
| 2026-05-07 05:42 | 40.96519 | 46.57794 | 35173 ft | 521 kts | 114° |
| 2026-05-07 05:43 | 40.94082 | 46.66831 | 35165 ft | 521 kts | 114° |
| 2026-05-07 05:43 | 40.91668 | 46.75866 | 35162 ft | 523 kts | 109° |
| 2026-05-07 05:43 | 40.90952 | 46.80611 | 35186 ft | 530 kts | 98° |
| 2026-05-07 05:44 | 40.90876 | 46.85522 | 35192 ft | 537 kts | 87° |
| 2026-05-07 05:44 | 40.92339 | 46.95239 | 35180 ft | 541 kts | 78° |
| 2026-05-07 05:45 | 40.94141 | 47.04902 | 35172 ft | 541 kts | 78° |
| 2026-05-07 05:45 | 40.95916 | 47.14564 | 35177 ft | 540 kts | 78° |
| 2026-05-07 05:46 | 40.97688 | 47.24228 | 35173 ft | 540 kts | 78° |
| 2026-05-07 05:46 | 40.99452 | 47.33896 | 35169 ft | 540 kts | 78° |
| 2026-05-07 05:47 | 41.01196 | 47.43514 | 35164 ft | 540 kts | 78° |
| 2026-05-07 05:47 | 41.02945 | 47.53200 | 35151 ft | 540 kts | 78° |
| 2026-05-07 05:48 | 41.04681 | 47.62876 | 35146 ft | 540 kts | 78° |
| 2026-05-07 05:48 | 41.06410 | 47.72547 | 35138 ft | 539 kts | 78° |
| 2026-05-07 05:49 | 41.08127 | 47.82211 | 35136 ft | 539 kts | 79° |
| 2026-05-07 05:49 | 41.09835 | 47.91872 | 35123 ft | 538 kts | 79° |
| 2026-05-07 05:50 | 41.11850 | 48.01398 | 35142 ft | 539 kts | 71° |
| 2026-05-07 05:50 | 41.14467 | 48.10728 | 35126 ft | 539 kts | 71° |
| 2026-05-07 05:51 | 41.17058 | 48.20083 | 35129 ft | 538 kts | 71° |
| 2026-05-07 05:51 | 41.19628 | 48.29357 | 35124 ft | 539 kts | 71° |
| 2026-05-07 05:52 | 41.22206 | 48.38714 | 35122 ft | 539 kts | 71° |
| 2026-05-07 05:52 | 41.24778 | 48.48073 | 35121 ft | 539 kts | 71° |
| 2026-05-07 05:53 | 41.27341 | 48.57442 | 35122 ft | 539 kts | 71° |
| 2026-05-07 05:53 | 41.29898 | 48.66822 | 35117 ft | 539 kts | 71° |
| 2026-05-07 05:54 | 41.32430 | 48.76141 | 35113 ft | 539 kts | 71° |
| 2026-05-07 05:54 | 41.34971 | 48.85534 | 35114 ft | 540 kts | 71° |
| 2026-05-07 05:55 | 41.37509 | 48.94948 | 35112 ft | 540 kts | 72° |
| 2026-05-07 05:55 | 41.40036 | 49.04368 | 35105 ft | 540 kts | 72° |
| 2026-05-07 05:56 | 41.42561 | 49.13809 | 35109 ft | 541 kts | 72° |
| 2026-05-07 05:56 | 41.45080 | 49.23266 | 35110 ft | 542 kts | 72° |
| 2026-05-07 05:57 | 41.47594 | 49.32740 | 35111 ft | 542 kts | 72° |
| 2026-05-07 05:57 | 41.50099 | 49.42218 | 35112 ft | 541 kts | 72° |
| 2026-05-07 05:58 | 41.52598 | 49.51712 | 35111 ft | 542 kts | 72° |
| 2026-05-07 05:58 | 41.55089 | 49.61210 | 35110 ft | 542 kts | 72° |
| 2026-05-07 05:59 | 41.57554 | 49.70645 | 35113 ft | 542 kts | 72° |
| 2026-05-07 05:59 | 41.60033 | 49.80174 | 35108 ft | 542 kts | 72° |
| 2026-05-07 06:00 | 41.62501 | 49.89697 | 35109 ft | 542 kts | 72° |
| 2026-05-07 06:00 | 41.64961 | 49.99225 | 35109 ft | 542 kts | 72° |
| 2026-05-07 06:01 | 41.67412 | 50.08759 | 35105 ft | 542 kts | 72° |
| 2026-05-07 06:01 | 41.69853 | 50.18289 | 35108 ft | 541 kts | 72° |
| 2026-05-07 06:02 | 41.72286 | 50.27828 | 35102 ft | 541 kts | 73° |
| 2026-05-07 06:02 | 41.74301 | 50.35753 | 35104 ft | 541 kts | 73° |
| 2026-05-07 06:03 | 41.76721 | 50.45313 | 35103 ft | 541 kts | 73° |
| 2026-05-07 06:03 | 41.79130 | 50.54863 | 35103 ft | 541 kts | 73° |
| 2026-05-07 06:04 | 41.81531 | 50.64422 | 35103 ft | 541 kts | 73° |
| 2026-05-07 06:04 | 41.83920 | 50.73971 | 35105 ft | 540 kts | 73° |
| 2026-05-07 06:05 | 41.86303 | 50.83538 | 35105 ft | 542 kts | 73° |
| 2026-05-07 06:05 | 41.88684 | 50.93131 | 35100 ft | 542 kts | 73° |
| 2026-05-07 06:06 | 41.91053 | 51.02719 | 35102 ft | 541 kts | 73° |
| 2026-05-07 06:06 | 41.93400 | 51.12256 | 35094 ft | 540 kts | 73° |
| 2026-05-07 06:07 | 41.95751 | 51.21846 | 35098 ft | 540 kts | 73° |
| 2026-05-07 06:07 | 41.98090 | 51.31430 | 35098 ft | 540 kts | 73° |
| 2026-05-07 06:08 | 42.00426 | 51.41039 | 35096 ft | 541 kts | 74° |
| 2026-05-07 06:08 | 42.03607 | 51.50163 | 35129 ft | 543 kts | 57° |
| 2026-05-07 06:09 | 42.07747 | 51.58685 | 35110 ft | 544 kts | 57° |
| 2026-05-07 06:09 | 42.11883 | 51.67228 | 35113 ft | 544 kts | 57° |
| 2026-05-07 06:10 | 42.15980 | 51.75725 | 35109 ft | 544 kts | 57° |
| 2026-05-07 06:10 | 42.20097 | 51.84275 | 35103 ft | 543 kts | 57° |
| 2026-05-07 06:11 | 42.24205 | 51.92842 | 35109 ft | 543 kts | 57° |
| 2026-05-07 06:11 | 42.28312 | 52.01422 | 35108 ft | 544 kts | 58° |
| 2026-05-07 06:12 | 42.32406 | 52.10007 | 35105 ft | 543 kts | 58° |
| 2026-05-07 06:12 | 42.36492 | 52.18595 | 35105 ft | 543 kts | 58° |
| 2026-05-07 06:13 | 42.40574 | 52.27203 | 35105 ft | 543 kts | 58° |
| 2026-05-07 06:13 | 42.44655 | 52.35830 | 35106 ft | 544 kts | 58° |
| 2026-05-07 06:14 | 42.48701 | 52.44410 | 35100 ft | 544 kts | 58° |
| 2026-05-07 06:14 | 42.52763 | 52.53049 | 35101 ft | 543 kts | 58° |
| 2026-05-07 06:15 | 42.56816 | 52.61693 | 35096 ft | 543 kts | 58° |
| 2026-05-07 06:15 | 42.60863 | 52.70348 | 35095 ft | 543 kts | 58° |
| 2026-05-07 06:16 | 42.64905 | 52.79021 | 35098 ft | 543 kts | 58° |
| 2026-05-07 06:16 | 42.68946 | 52.87714 | 35096 ft | 543 kts | 58° |
| 2026-05-07 06:17 | 42.72979 | 52.96417 | 35089 ft | 544 kts | 59° |
| 2026-05-07 06:17 | 42.77010 | 53.05140 | 35084 ft | 544 kts | 59° |
| 2026-05-07 06:18 | 42.81033 | 53.13873 | 35088 ft | 545 kts | 59° |
| 2026-05-07 06:18 | 42.85059 | 53.22637 | 35082 ft | 545 kts | 59° |
| 2026-05-07 06:19 | 42.89049 | 53.31349 | 35084 ft | 545 kts | 59° |
| 2026-05-07 06:19 | 42.93060 | 53.40133 | 35078 ft | 545 kts | 59° |
| 2026-05-07 06:20 | 42.97072 | 53.48945 | 35076 ft | 546 kts | 59° |
| 2026-05-07 06:20 | 43.00701 | 53.58020 | 35103 ft | 542 kts | 74° |
| 2026-05-07 06:20 | 43.01676 | 53.62969 | 35094 ft | 538 kts | 85° |
| 2026-05-07 06:21 | 43.02104 | 53.68038 | 35081 ft | 536 kts | 88° |
| 2026-05-07 06:21 | 43.02789 | 53.78185 | 35077 ft | 536 kts | 89° |
| 2026-05-07 06:22 | 43.03472 | 53.88335 | 35078 ft | 536 kts | 89° |
| 2026-05-07 06:22 | 43.04474 | 54.03501 | 35075 ft | 537 kts | 89° |
| 2026-05-07 06:23 | 43.05140 | 54.13682 | 35073 ft | 537 kts | 89° |
| 2026-05-07 06:23 | 43.05791 | 54.23861 | 35069 ft | 537 kts | 89° |
| 2026-05-07 06:24 | 43.06436 | 54.34045 | 35065 ft | 537 kts | 89° |
| 2026-05-07 06:24 | 43.07070 | 54.44224 | 35059 ft | 537 kts | 89° |
| 2026-05-07 06:25 | 43.07696 | 54.54413 | 35056 ft | 537 kts | 89° |
| 2026-05-07 06:25 | 43.08308 | 54.64525 | 35062 ft | 537 kts | 90° |
| 2026-05-07 06:26 | 43.08916 | 54.74723 | 35052 ft | 537 kts | 90° |
| 2026-05-07 06:26 | 43.09515 | 54.84918 | 35053 ft | 537 kts | 90° |
| 2026-05-07 06:27 | 43.10105 | 54.95117 | 35054 ft | 538 kts | 90° |
| 2026-05-07 06:27 | 43.10686 | 55.05322 | 35044 ft | 538 kts | 90° |
| 2026-05-07 06:28 | 43.11258 | 55.15530 | 35053 ft | 538 kts | 90° |
| 2026-05-07 06:28 | 43.11821 | 55.25735 | 35045 ft | 538 kts | 90° |
| 2026-05-07 06:29 | 43.12372 | 55.35887 | 35035 ft | 538 kts | 90° |
| 2026-05-07 06:29 | 43.12916 | 55.46098 | 35037 ft | 538 kts | 90° |
| 2026-05-07 06:30 | 43.13452 | 55.56309 | 35038 ft | 538 kts | 91° |
| 2026-05-07 06:30 | 43.13979 | 55.66527 | 35031 ft | 538 kts | 91° |
| 2026-05-07 06:31 | 43.14497 | 55.76747 | 35030 ft | 537 kts | 91° |
| 2026-05-07 06:31 | 43.15004 | 55.86952 | 35031 ft | 537 kts | 91° |
| 2026-05-07 06:32 | 43.15507 | 55.97179 | 35025 ft | 538 kts | 89° |
| 2026-05-07 06:32 | 43.16127 | 56.02246 | 35060 ft | 544 kts | 78° |
| 2026-05-07 06:32 | 43.17161 | 56.07262 | 35035 ft | 547 kts | 77° |
| 2026-05-07 06:33 | 43.19289 | 56.17201 | 35038 ft | 547 kts | 77° |
| 2026-05-07 06:33 | 43.21383 | 56.27243 | 35034 ft | 547 kts | 77° |
| 2026-05-07 06:34 | 43.23487 | 56.37271 | 35032 ft | 547 kts | 77° |
| 2026-05-07 06:34 | 43.25575 | 56.47322 | 35029 ft | 547 kts | 77° |
| 2026-05-07 06:35 | 43.27652 | 56.57352 | 35019 ft | 547 kts | 77° |
| 2026-05-07 06:35 | 43.29708 | 56.67330 | 35014 ft | 546 kts | 78° |
| 2026-05-07 06:36 | 43.31765 | 56.77365 | 35007 ft | 546 kts | 78° |
| 2026-05-07 06:36 | 43.33815 | 56.87410 | 35006 ft | 546 kts | 78° |
| 2026-05-07 06:37 | 43.35855 | 56.97466 | 35005 ft | 546 kts | 78° |
| 2026-05-07 06:37 | 43.37887 | 57.07522 | 34995 ft | 546 kts | 78° |
| 2026-05-07 06:38 | 43.39907 | 57.17575 | 34992 ft | 546 kts | 78° |
| 2026-05-07 06:38 | 43.41923 | 57.27655 | 34992 ft | 545 kts | 78° |
| 2026-05-07 06:39 | 43.43924 | 57.37717 | 34993 ft | 545 kts | 78° |
| 2026-05-07 06:39 | 43.45918 | 57.47789 | 34989 ft | 545 kts | 78° |
| 2026-05-07 06:40 | 43.47894 | 57.57824 | 34985 ft | 545 kts | 78° |
| 2026-05-07 06:40 | 43.49869 | 57.67902 | 34983 ft | 546 kts | 78° |
| 2026-05-07 06:41 | 43.51838 | 57.78007 | 34981 ft | 545 kts | 78° |
| 2026-05-07 06:41 | 43.53797 | 57.88107 | 34979 ft | 545 kts | 78° |
| 2026-05-07 06:42 | 43.55747 | 57.98215 | 34979 ft | 545 kts | 78° |
| 2026-05-07 06:42 | 43.57687 | 58.08325 | 34971 ft | 545 kts | 78° |
| 2026-05-07 06:43 | 43.59616 | 58.18431 | 34983 ft | 544 kts | 78° |
| 2026-05-07 06:43 | 43.61533 | 58.28528 | 34974 ft | 544 kts | 78° |
| 2026-05-07 06:44 | 43.63441 | 58.38631 | 34966 ft | 544 kts | 79° |
| 2026-05-07 06:44 | 43.65279 | 58.48681 | 34967 ft | 543 kts | 79° |
| 2026-05-07 06:45 | 43.67138 | 58.58800 | 34965 ft | 543 kts | 79° |
| 2026-05-07 06:45 | 43.68981 | 58.68925 | 34957 ft | 543 kts | 79° |
| 2026-05-07 06:46 | 43.70816 | 58.79054 | 34957 ft | 543 kts | 79° |
| 2026-05-07 06:46 | 43.72641 | 58.89181 | 34955 ft | 543 kts | 79° |
| 2026-05-07 06:47 | 43.74455 | 58.99310 | 34952 ft | 542 kts | 79° |
| 2026-05-07 06:47 | 43.76278 | 59.09435 | 34954 ft | 541 kts | 78° |
| 2026-05-07 06:48 | 43.78143 | 59.19511 | 34949 ft | 540 kts | 79° |
| 2026-05-07 06:48 | 43.79963 | 59.29612 | 34949 ft | 540 kts | 79° |
| 2026-05-07 06:49 | 43.81780 | 59.39618 | 34949 ft | 539 kts | 79° |
| 2026-05-07 06:49 | 43.83582 | 59.49671 | 34940 ft | 538 kts | 79° |
| 2026-05-07 06:50 | 43.85385 | 59.59741 | 34943 ft | 539 kts | 79° |
| 2026-05-07 06:50 | 43.87175 | 59.69819 | 34939 ft | 538 kts | 79° |
| 2026-05-07 06:51 | 43.88634 | 59.78209 | 34937 ft | 537 kts | 80° |
| 2026-05-07 06:51 | 43.90358 | 59.88288 | 34938 ft | 537 kts | 79° |
| 2026-05-07 06:52 | 43.92090 | 59.98361 | 34941 ft | 536 kts | 80° |
| 2026-05-07 06:52 | 43.93796 | 60.08417 | 34935 ft | 535 kts | 80° |
| 2026-05-07 06:53 | 43.95498 | 60.18461 | 34932 ft | 534 kts | 80° |
| 2026-05-07 06:53 | 43.97186 | 60.28502 | 34925 ft | 533 kts | 80° |
| 2026-05-07 06:54 | 43.98863 | 60.38525 | 34921 ft | 533 kts | 80° |
| 2026-05-07 06:54 | 44.00528 | 60.48541 | 34922 ft | 533 kts | 80° |
| 2026-05-07 06:55 | 44.02176 | 60.58507 | 34924 ft | 532 kts | 80° |
| 2026-05-07 06:55 | 44.03822 | 60.68522 | 34913 ft | 531 kts | 80° |
| 2026-05-07 06:56 | 44.05460 | 60.78547 | 34914 ft | 531 kts | 80° |
| 2026-05-07 06:56 | 44.07087 | 60.88566 | 34913 ft | 531 kts | 80° |
| 2026-05-07 06:57 | 44.08705 | 60.98582 | 34906 ft | 530 kts | 80° |
| 2026-05-07 06:57 | 44.10310 | 61.08585 | 34910 ft | 530 kts | 81° |
| 2026-05-07 06:58 | 44.11906 | 61.18584 | 34905 ft | 529 kts | 81° |
| 2026-05-07 06:58 | 44.13479 | 61.28505 | 34912 ft | 528 kts | 81° |
| 2026-05-07 06:59 | 44.14406 | 61.38565 | 34913 ft | 523 kts | 90° |
| 2026-05-07 06:59 | 44.14848 | 61.48687 | 34915 ft | 524 kts | 90° |
| 2026-05-07 07:00 | 44.15289 | 61.58837 | 34915 ft | 524 kts | 90° |
| 2026-05-07 07:00 | 44.15720 | 61.68973 | 34908 ft | 524 kts | 90° |
| 2026-05-07 07:01 | 44.16146 | 61.79055 | 34910 ft | 524 kts | 90° |
| 2026-05-07 07:01 | 44.16562 | 61.89193 | 34902 ft | 523 kts | 90° |
| 2026-05-07 07:02 | 44.16971 | 61.99344 | 34900 ft | 524 kts | 91° |
| 2026-05-07 07:02 | 44.17370 | 62.09470 | 34892 ft | 524 kts | 91° |
| 2026-05-07 07:03 | 44.17760 | 62.19607 | 34892 ft | 524 kts | 91° |
| 2026-05-07 07:03 | 44.18141 | 62.29735 | 34894 ft | 524 kts | 91° |
| 2026-05-07 07:04 | 44.18500 | 62.39862 | 34893 ft | 523 kts | 91° |
| 2026-05-07 07:04 | 44.18844 | 62.49987 | 34900 ft | 523 kts | 91° |
| 2026-05-07 07:05 | 44.19182 | 62.60041 | 34894 ft | 523 kts | 91° |
| 2026-05-07 07:05 | 44.19511 | 62.70174 | 34894 ft | 523 kts | 91° |
| 2026-05-07 07:06 | 44.19832 | 62.80298 | 34893 ft | 522 kts | 91° |
| 2026-05-07 07:06 | 44.20143 | 62.90428 | 34889 ft | 523 kts | 91° |
| 2026-05-07 07:07 | 44.20446 | 63.00555 | 34889 ft | 523 kts | 91° |
| 2026-05-07 07:07 | 44.20739 | 63.10691 | 34892 ft | 523 kts | 91° |
| 2026-05-07 07:08 | 44.20936 | 63.20813 | 34904 ft | 521 kts | 93° |
| 2026-05-07 07:08 | 44.21117 | 63.30888 | 34905 ft | 524 kts | 92° |
| 2026-05-07 07:09 | 44.21218 | 63.41033 | 34895 ft | 523 kts | 93° |
| 2026-05-07 07:09 | 44.21340 | 63.51173 | 34895 ft | 523 kts | 92° |
| 2026-05-07 07:10 | 44.21444 | 63.61313 | 34912 ft | 523 kts | 93° |
| 2026-05-07 07:10 | 44.21539 | 63.71466 | 34898 ft | 524 kts | 93° |
| 2026-05-07 07:11 | 44.21628 | 63.81610 | 34897 ft | 523 kts | 93° |
| 2026-05-07 07:11 | 44.21705 | 63.91761 | 34912 ft | 524 kts | 93° |
| 2026-05-07 07:12 | 44.21776 | 64.01916 | 34912 ft | 524 kts | 93° |
| 2026-05-07 07:12 | 44.21835 | 64.12079 | 34907 ft | 524 kts | 93° |
| 2026-05-07 07:13 | 44.22108 | 64.22177 | 34908 ft | 526 kts | 89° |
| 2026-05-07 07:13 | 44.22560 | 64.32375 | 34909 ft | 527 kts | 90° |
| 2026-05-07 07:14 | 44.23031 | 64.42580 | 34913 ft | 528 kts | 90° |
| 2026-05-07 07:14 | 44.23480 | 64.52801 | 34908 ft | 528 kts | 90° |
| 2026-05-07 07:15 | 44.23926 | 64.63035 | 34906 ft | 528 kts | 90° |
| 2026-05-07 07:15 | 44.24360 | 64.73250 | 34901 ft | 528 kts | 90° |
| 2026-05-07 07:16 | 44.24786 | 64.83487 | 34905 ft | 528 kts | 90° |
| 2026-05-07 07:16 | 44.25166 | 64.93653 | 34901 ft | 528 kts | 90° |
| 2026-05-07 07:17 | 44.25546 | 65.03884 | 34903 ft | 528 kts | 90° |
| 2026-05-07 07:17 | 44.25916 | 65.14103 | 34899 ft | 527 kts | 90° |
| 2026-05-07 07:18 | 44.26274 | 65.24324 | 34909 ft | 528 kts | 90° |
| 2026-05-07 07:18 | 44.26627 | 65.34563 | 34907 ft | 528 kts | 90° |
| 2026-05-07 07:19 | 44.26968 | 65.44811 | 34901 ft | 528 kts | 90° |
| 2026-05-07 07:19 | 44.27300 | 65.54979 | 34902 ft | 528 kts | 90° |
| 2026-05-07 07:20 | 44.27624 | 65.65225 | 34907 ft | 529 kts | 90° |
| 2026-05-07 07:20 | 44.27939 | 65.75476 | 34907 ft | 528 kts | 90° |
| 2026-05-07 07:21 | 44.28245 | 65.85728 | 34907 ft | 528 kts | 90° |
| 2026-05-07 07:21 | 44.28542 | 65.96008 | 34910 ft | 529 kts | 90° |
| 2026-05-07 07:22 | 44.28830 | 66.06268 | 34916 ft | 529 kts | 90° |
| 2026-05-07 07:22 | 44.29108 | 66.16525 | 34913 ft | 529 kts | 90° |
| 2026-05-07 07:23 | 44.29377 | 66.26735 | 34921 ft | 529 kts | 90° |
| 2026-05-07 07:23 | 44.29637 | 66.36999 | 34918 ft | 529 kts | 90° |
| 2026-05-07 07:24 | 44.29778 | 66.47273 | 34932 ft | 529 kts | 91° |
| 2026-05-07 07:24 | 44.29926 | 66.57571 | 34935 ft | 531 kts | 91° |
| 2026-05-07 07:25 | 44.30003 | 66.73079 | 34942 ft | 532 kts | 91° |
| 2026-05-07 07:26 | 44.30085 | 66.83416 | 34947 ft | 533 kts | 91° |
| 2026-05-07 07:26 | 44.30124 | 66.93717 | 34949 ft | 533 kts | 91° |
| 2026-05-07 07:27 | 44.30176 | 67.04083 | 34957 ft | 534 kts | 91° |
| 2026-05-07 07:27 | 44.30205 | 67.14444 | 34959 ft | 533 kts | 91° |
| 2026-05-07 07:28 | 44.30232 | 67.24793 | 34961 ft | 533 kts | 91° |
| 2026-05-07 07:28 | 44.30246 | 67.35151 | 34964 ft | 533 kts | 91° |
| 2026-05-07 07:29 | 44.30253 | 67.45449 | 34966 ft | 533 kts | 91° |
| 2026-05-07 07:29 | 44.30419 | 67.55790 | 34985 ft | 533 kts | 86° |
| 2026-05-07 07:30 | 44.30991 | 67.66122 | 34972 ft | 534 kts | 86° |
| 2026-05-07 07:30 | 44.31539 | 67.76454 | 34968 ft | 533 kts | 86° |
| 2026-05-07 07:31 | 44.32086 | 67.86780 | 34968 ft | 532 kts | 86° |
| 2026-05-07 07:31 | 44.32616 | 67.97075 | 34962 ft | 531 kts | 86° |
| 2026-05-07 07:32 | 44.33138 | 68.07320 | 34962 ft | 531 kts | 86° |
| 2026-05-07 07:32 | 44.33650 | 68.17597 | 34964 ft | 530 kts | 86° |
| 2026-05-07 07:33 | 44.34154 | 68.27869 | 34964 ft | 529 kts | 86° |
| 2026-05-07 07:33 | 44.34647 | 68.38128 | 34958 ft | 528 kts | 86° |
| 2026-05-07 07:34 | 44.35128 | 68.48307 | 34959 ft | 528 kts | 86° |
| 2026-05-07 07:34 | 44.35601 | 68.58538 | 34954 ft | 527 kts | 86° |
| 2026-05-07 07:35 | 44.36066 | 68.68766 | 34952 ft | 527 kts | 86° |
| 2026-05-07 07:35 | 44.36520 | 68.78973 | 34955 ft | 526 kts | 87° |
| 2026-05-07 07:36 | 44.36965 | 68.89175 | 34951 ft | 525 kts | 87° |
| 2026-05-07 07:36 | 44.36685 | 68.99341 | 34967 ft | 524 kts | 95° |
| 2026-05-07 07:37 | 44.36177 | 69.09483 | 34975 ft | 523 kts | 95° |
| 2026-05-07 07:37 | 44.35689 | 69.19608 | 34970 ft | 522 kts | 95° |
| 2026-05-07 07:38 | 44.35175 | 69.29712 | 34966 ft | 521 kts | 95° |
| 2026-05-07 07:38 | 44.34668 | 69.39741 | 34968 ft | 520 kts | 95° |
| 2026-05-07 07:39 | 44.34141 | 69.49830 | 34967 ft | 520 kts | 95° |
| 2026-05-07 07:39 | 44.33700 | 69.58208 | 34965 ft | 519 kts | 95° |
| 2026-05-07 07:40 | 44.33161 | 69.68267 | 34962 ft | 518 kts | 95° |
| 2026-05-07 07:40 | 44.32616 | 69.78285 | 34962 ft | 516 kts | 95° |
| 2026-05-07 07:41 | 44.32063 | 69.88279 | 34957 ft | 516 kts | 95° |
| 2026-05-07 07:41 | 44.31500 | 69.98300 | 34955 ft | 516 kts | 95° |
| 2026-05-07 07:42 | 44.30934 | 70.08206 | 34955 ft | 515 kts | 95° |
| 2026-05-07 07:42 | 44.30357 | 70.18171 | 34957 ft | 514 kts | 95° |
| 2026-05-07 07:43 | 44.29771 | 70.28122 | 34952 ft | 515 kts | 95° |
| 2026-05-07 07:43 | 44.29174 | 70.38078 | 34950 ft | 514 kts | 95° |
| 2026-05-07 07:44 | 44.28561 | 70.48024 | 34957 ft | 514 kts | 95° |
| 2026-05-07 07:44 | 44.27945 | 70.57967 | 34954 ft | 514 kts | 96° |
| 2026-05-07 07:45 | 44.27317 | 70.67912 | 34953 ft | 515 kts | 96° |
| 2026-05-07 07:45 | 44.26681 | 70.77874 | 34951 ft | 515 kts | 96° |
| 2026-05-07 07:46 | 44.26034 | 70.87841 | 34950 ft | 515 kts | 96° |
| 2026-05-07 07:46 | 44.25384 | 70.97737 | 34948 ft | 516 kts | 96° |
| 2026-05-07 07:47 | 44.24720 | 71.07718 | 34951 ft | 517 kts | 96° |
| 2026-05-07 07:47 | 44.24046 | 71.17705 | 34952 ft | 517 kts | 96° |
| 2026-05-07 07:48 | 44.23363 | 71.27692 | 34950 ft | 517 kts | 96° |
| 2026-05-07 07:48 | 44.22672 | 71.37667 | 34948 ft | 517 kts | 96° |
| 2026-05-07 07:49 | 44.21996 | 71.47647 | 34949 ft | 517 kts | 95° |
| 2026-05-07 07:49 | 44.21329 | 71.57629 | 34950 ft | 517 kts | 95° |
| 2026-05-07 07:50 | 44.20640 | 71.67599 | 34954 ft | 516 kts | 95° |
| 2026-05-07 07:50 | 44.19957 | 71.77495 | 34957 ft | 516 kts | 95° |
| 2026-05-07 07:51 | 44.19256 | 71.87428 | 34952 ft | 515 kts | 95° |
| 2026-05-07 07:51 | 44.18553 | 71.97336 | 34949 ft | 513 kts | 95° |
| 2026-05-07 07:52 | 44.17840 | 72.07218 | 34954 ft | 512 kts | 95° |
| 2026-05-07 07:52 | 44.17121 | 72.17081 | 34954 ft | 511 kts | 96° |
| 2026-05-07 07:53 | 44.16395 | 72.26918 | 34959 ft | 510 kts | 96° |
| 2026-05-07 07:53 | 44.15661 | 72.36756 | 34961 ft | 509 kts | 96° |
| 2026-05-07 07:54 | 44.14919 | 72.46573 | 34961 ft | 509 kts | 96° |
| 2026-05-07 07:54 | 44.14171 | 72.56355 | 34955 ft | 508 kts | 96° |
| 2026-05-07 07:55 | 44.13420 | 72.66073 | 34956 ft | 508 kts | 96° |
| 2026-05-07 07:55 | 44.12657 | 72.75833 | 34959 ft | 507 kts | 96° |
| 2026-05-07 07:56 | 44.11886 | 72.85586 | 34959 ft | 507 kts | 97° |
| 2026-05-07 07:56 | 44.11108 | 72.95326 | 34957 ft | 506 kts | 97° |
| 2026-05-07 07:57 | 44.10314 | 73.05062 | 34954 ft | 505 kts | 97° |
| 2026-05-07 07:57 | 44.09509 | 73.14771 | 34957 ft | 505 kts | 97° |
| 2026-05-07 07:58 | 44.08700 | 73.24479 | 34956 ft | 504 kts | 97° |
| 2026-05-07 07:58 | 44.07881 | 73.34160 | 34953 ft | 504 kts | 97° |
| 2026-05-07 07:59 | 44.07055 | 73.43845 | 34956 ft | 504 kts | 97° |
| 2026-05-07 07:59 | 44.06226 | 73.53461 | 34952 ft | 504 kts | 97° |
| 2026-05-07 08:00 | 44.05385 | 73.63135 | 34953 ft | 503 kts | 98° |
| 2026-05-07 08:00 | 44.04536 | 73.72793 | 34958 ft | 503 kts | 98° |
| 2026-05-07 08:01 | 44.03678 | 73.82456 | 34961 ft | 504 kts | 98° |
| 2026-05-07 08:01 | 44.02812 | 73.92125 | 34967 ft | 503 kts | 98° |
| 2026-05-07 08:02 | 44.01939 | 74.01765 | 34966 ft | 502 kts | 98° |
| 2026-05-07 08:02 | 44.01065 | 74.11326 | 34973 ft | 502 kts | 98° |
| 2026-05-07 08:03 | 44.00178 | 74.20948 | 34972 ft | 502 kts | 98° |
| 2026-05-07 08:03 | 43.99282 | 74.30570 | 34980 ft | 502 kts | 98° |
| 2026-05-07 08:04 | 43.98379 | 74.40179 | 34980 ft | 502 kts | 98° |
| 2026-05-07 08:04 | 43.97466 | 74.49804 | 34987 ft | 503 kts | 98° |
| 2026-05-07 08:05 | 43.96615 | 74.59452 | 34988 ft | 504 kts | 97° |
| 2026-05-07 08:05 | 43.95785 | 74.69131 | 34987 ft | 505 kts | 98° |
| 2026-05-07 08:06 | 43.94923 | 74.78752 | 34990 ft | 505 kts | 97° |
| 2026-05-07 08:06 | 43.94071 | 74.88408 | 34986 ft | 504 kts | 97° |
| 2026-05-07 08:07 | 43.93195 | 74.98068 | 34984 ft | 503 kts | 97° |
| 2026-05-07 08:07 | 43.92322 | 75.07706 | 34982 ft | 503 kts | 97° |
| 2026-05-07 08:08 | 43.91441 | 75.17280 | 34982 ft | 503 kts | 97° |
| 2026-05-07 08:08 | 43.90552 | 75.26891 | 34976 ft | 502 kts | 97° |
| 2026-05-07 08:09 | 43.89653 | 75.36505 | 34972 ft | 502 kts | 97° |
| 2026-05-07 08:09 | 43.88745 | 75.46122 | 34968 ft | 502 kts | 97° |
| 2026-05-07 08:10 | 43.87831 | 75.55726 | 34966 ft | 502 kts | 97° |
| 2026-05-07 08:10 | 43.86908 | 75.65325 | 34959 ft | 503 kts | 97° |
| 2026-05-07 08:11 | 43.85975 | 75.74943 | 34963 ft | 503 kts | 97° |
| 2026-05-07 08:11 | 43.85037 | 75.84537 | 34964 ft | 503 kts | 97° |
| 2026-05-07 08:12 | 43.84088 | 75.94144 | 34957 ft | 504 kts | 97° |
| 2026-05-07 08:12 | 43.83040 | 76.03735 | 34959 ft | 503 kts | 99° |
| 2026-05-07 08:13 | 43.81975 | 76.13268 | 34960 ft | 504 kts | 98° |
| 2026-05-07 08:13 | 43.80822 | 76.22839 | 34960 ft | 504 kts | 98° |
| 2026-05-07 08:14 | 43.79694 | 76.32401 | 34957 ft | 503 kts | 98° |
| 2026-05-07 08:14 | 43.78547 | 76.41953 | 34958 ft | 502 kts | 98° |
| 2026-05-07 08:15 | 43.77395 | 76.51491 | 34959 ft | 501 kts | 98° |
| 2026-05-07 08:15 | 43.76241 | 76.60998 | 34961 ft | 500 kts | 98° |
| 2026-05-07 08:16 | 43.75084 | 76.70432 | 34960 ft | 500 kts | 98° |
| 2026-05-07 08:16 | 43.73913 | 76.79936 | 34965 ft | 500 kts | 98° |
| 2026-05-07 08:17 | 43.72735 | 76.89415 | 34962 ft | 500 kts | 98° |
| 2026-05-07 08:17 | 43.71550 | 76.98892 | 34967 ft | 500 kts | 98° |
| 2026-05-07 08:18 | 43.70366 | 77.08292 | 34966 ft | 500 kts | 98° |
| 2026-05-07 08:18 | 43.69167 | 77.17748 | 34972 ft | 499 kts | 98° |
| 2026-05-07 08:19 | 43.67958 | 77.27186 | 34967 ft | 498 kts | 98° |
| 2026-05-07 08:19 | 43.66739 | 77.36610 | 34977 ft | 498 kts | 98° |
| 2026-05-07 08:20 | 43.65515 | 77.46025 | 34976 ft | 497 kts | 98° |
| 2026-05-07 08:20 | 43.64285 | 77.55411 | 34977 ft | 496 kts | 98° |
| 2026-05-07 08:21 | 43.63052 | 77.64775 | 34980 ft | 495 kts | 98° |
| 2026-05-07 08:21 | 43.61819 | 77.74065 | 34981 ft | 495 kts | 98° |
| 2026-05-07 08:22 | 43.60573 | 77.83398 | 34982 ft | 494 kts | 98° |
| 2026-05-07 08:22 | 43.59319 | 77.92723 | 34993 ft | 494 kts | 98° |
| 2026-05-07 08:23 | 43.58059 | 78.02039 | 34993 ft | 494 kts | 98° |
| 2026-05-07 08:23 | 43.57365 | 78.11374 | 34990 ft | 489 kts | 89° |
| 2026-05-07 08:24 | 43.57207 | 78.20760 | 34992 ft | 489 kts | 88° |
| 2026-05-07 08:24 | 43.57041 | 78.30075 | 34992 ft | 488 kts | 88° |
| 2026-05-07 08:25 | 43.56866 | 78.39434 | 34987 ft | 487 kts | 88° |
| 2026-05-07 08:25 | 43.56685 | 78.48770 | 34985 ft | 487 kts | 88° |
| 2026-05-07 08:26 | 43.56432 | 78.61176 | 34979 ft | 486 kts | 89° |
| 2026-05-07 08:26 | 43.56233 | 78.70477 | 34982 ft | 485 kts | 89° |
| 2026-05-07 08:27 | 43.56028 | 78.79771 | 34981 ft | 485 kts | 89° |
| 2026-05-07 08:27 | 43.55814 | 78.89066 | 34980 ft | 484 kts | 89° |
| 2026-05-07 08:28 | 43.55594 | 78.98328 | 34977 ft | 483 kts | 89° |
| 2026-05-07 08:28 | 43.55368 | 79.07524 | 34980 ft | 482 kts | 89° |
| 2026-05-07 08:29 | 43.55134 | 79.16761 | 34982 ft | 482 kts | 89° |
| 2026-05-07 08:29 | 43.54891 | 79.26018 | 34984 ft | 482 kts | 89° |
| 2026-05-07 08:30 | 43.54642 | 79.35244 | 34984 ft | 481 kts | 89° |
| 2026-05-07 08:30 | 43.54385 | 79.44464 | 34986 ft | 480 kts | 89° |
| 2026-05-07 08:31 | 43.54123 | 79.53611 | 34994 ft | 480 kts | 89° |
| 2026-05-07 08:31 | 43.53853 | 79.62807 | 34999 ft | 480 kts | 89° |
| 2026-05-07 08:32 | 43.53575 | 79.72006 | 34996 ft | 480 kts | 89° |
| 2026-05-07 08:32 | 43.53290 | 79.81197 | 35005 ft | 480 kts | 89° |
| 2026-05-07 08:33 | 43.52997 | 79.90402 | 35010 ft | 481 kts | 90° |
| 2026-05-07 08:33 | 43.52697 | 79.99612 | 35010 ft | 480 kts | 90° |
| 2026-05-07 08:34 | 43.52390 | 80.08808 | 35014 ft | 481 kts | 90° |
| 2026-05-07 08:34 | 43.52077 | 80.17961 | 35018 ft | 482 kts | 90° |
| 2026-05-07 08:35 | 43.51755 | 80.27179 | 35025 ft | 481 kts | 90° |
| 2026-05-07 08:35 | 43.51425 | 80.36387 | 35031 ft | 481 kts | 90° |
| 2026-05-07 08:36 | 43.51088 | 80.45603 | 35037 ft | 481 kts | 90° |
| 2026-05-07 08:36 | 43.50742 | 80.54834 | 35034 ft | 482 kts | 91° |
| 2026-05-07 08:37 | 43.50389 | 80.64078 | 35038 ft | 484 kts | 91° |
| 2026-05-07 08:37 | 43.50032 | 80.73326 | 35047 ft | 483 kts | 89° |
| 2026-05-07 08:38 | 43.49911 | 80.82577 | 35046 ft | 484 kts | 90° |
| 2026-05-07 08:38 | 43.49756 | 80.91841 | 35049 ft | 484 kts | 89° |
| 2026-05-07 08:39 | 43.49628 | 81.01057 | 35049 ft | 485 kts | 90° |
| 2026-05-07 08:39 | 43.49466 | 81.10346 | 35045 ft | 486 kts | 90° |
| 2026-05-07 08:40 | 43.49313 | 81.19641 | 35047 ft | 485 kts | 90° |
| 2026-05-07 08:40 | 43.49143 | 81.28931 | 35040 ft | 485 kts | 90° |
| 2026-05-07 08:41 | 43.48971 | 81.38228 | 35035 ft | 486 kts | 90° |
| 2026-05-07 08:41 | 43.48789 | 81.47531 | 35032 ft | 487 kts | 90° |
| 2026-05-07 08:42 | 43.48599 | 81.56871 | 35029 ft | 488 kts | 90° |
| 2026-05-07 08:42 | 43.48400 | 81.66213 | 35012 ft | 487 kts | 90° |
| 2026-05-07 08:43 | 43.48196 | 81.75471 | 35007 ft | 487 kts | 90° |
| 2026-05-07 08:43 | 43.47977 | 81.84804 | 34996 ft | 487 kts | 90° |
| 2026-05-07 08:44 | 43.47754 | 81.94132 | 34994 ft | 487 kts | 91° |
| 2026-05-07 08:44 | 43.47521 | 82.03453 | 34987 ft | 487 kts | 91° |
| 2026-05-07 08:45 | 43.47282 | 82.12786 | 34986 ft | 487 kts | 91° |
| 2026-05-07 08:45 | 43.47035 | 82.22096 | 34977 ft | 487 kts | 91° |
| 2026-05-07 08:46 | 43.46782 | 82.31370 | 34975 ft | 487 kts | 91° |
| 2026-05-07 08:46 | 43.46520 | 82.40679 | 34972 ft | 487 kts | 91° |
| 2026-05-07 08:47 | 43.46250 | 82.50033 | 34980 ft | 488 kts | 91° |
| 2026-05-07 08:47 | 43.45971 | 82.59363 | 34982 ft | 488 kts | 91° |
| 2026-05-07 08:48 | 43.45687 | 82.68689 | 34985 ft | 488 kts | 91° |
| 2026-05-07 08:48 | 43.45394 | 82.78017 | 34991 ft | 488 kts | 91° |
| 2026-05-07 08:49 | 43.45096 | 82.87278 | 34986 ft | 488 kts | 91° |
| 2026-05-07 08:49 | 43.44788 | 82.96598 | 35004 ft | 488 kts | 91° |
| 2026-05-07 08:50 | 43.44473 | 83.05928 | 35007 ft | 487 kts | 91° |
| 2026-05-07 08:50 | 43.44150 | 83.15241 | 35015 ft | 487 kts | 91° |
| 2026-05-07 08:51 | 43.43820 | 83.24559 | 35031 ft | 487 kts | 91° |
| 2026-05-07 08:51 | 43.43482 | 83.33869 | 35053 ft | 487 kts | 91° |
| 2026-05-07 08:52 | 43.42880 | 83.43156 | 35058 ft | 489 kts | 95° |
| 2026-05-07 08:52 | 43.42104 | 83.52455 | 35057 ft | 489 kts | 95° |
| 2026-05-07 08:53 | 43.41301 | 83.61684 | 35070 ft | 489 kts | 95° |
| 2026-05-07 08:53 | 43.40496 | 83.70991 | 35072 ft | 490 kts | 95° |
| 2026-05-07 08:54 | 43.39678 | 83.80294 | 35091 ft | 490 kts | 95° |
| 2026-05-07 08:54 | 43.38854 | 83.89602 | 35079 ft | 490 kts | 95° |
| 2026-05-07 08:55 | 43.38022 | 83.98907 | 35090 ft | 491 kts | 96° |
| 2026-05-07 08:55 | 43.37182 | 84.08216 | 35089 ft | 491 kts | 96° |
| 2026-05-07 08:56 | 43.36332 | 84.17548 | 35103 ft | 492 kts | 96° |
| 2026-05-07 08:56 | 43.35480 | 84.26810 | 35107 ft | 492 kts | 96° |
| 2026-05-07 08:57 | 43.34616 | 84.36127 | 35120 ft | 491 kts | 96° |
| 2026-05-07 08:57 | 43.33740 | 84.45445 | 35119 ft | 491 kts | 96° |
| 2026-05-07 08:58 | 43.32856 | 84.54744 | 35133 ft | 490 kts | 96° |
| 2026-05-07 08:58 | 43.31967 | 84.64029 | 35141 ft | 490 kts | 96° |
| 2026-05-07 08:59 | 43.31075 | 84.73258 | 35151 ft | 490 kts | 96° |
| 2026-05-07 08:59 | 43.30172 | 84.82529 | 35153 ft | 490 kts | 96° |
| 2026-05-07 09:00 | 43.29262 | 84.91779 | 35166 ft | 489 kts | 96° |
| 2026-05-07 09:00 | 43.28345 | 85.01033 | 35171 ft | 490 kts | 96° |
| 2026-05-07 09:01 | 43.27417 | 85.10307 | 35173 ft | 490 kts | 96° |
| 2026-05-07 09:01 | 43.26482 | 85.19582 | 35181 ft | 491 kts | 96° |
| 2026-05-07 09:02 | 43.25538 | 85.28866 | 35183 ft | 491 kts | 97° |
| 2026-05-07 09:02 | 43.24588 | 85.38143 | 35181 ft | 492 kts | 97° |
| 2026-05-07 09:03 | 43.23628 | 85.47425 | 35180 ft | 490 kts | 97° |
| 2026-05-07 09:03 | 43.22663 | 85.56694 | 35178 ft | 490 kts | 97° |
| 2026-05-07 09:04 | 43.21698 | 85.65883 | 35180 ft | 490 kts | 97° |
| 2026-05-07 09:04 | 43.20720 | 85.75115 | 35170 ft | 489 kts | 97° |
| 2026-05-07 09:05 | 43.19735 | 85.84360 | 35176 ft | 490 kts | 97° |
| 2026-05-07 09:05 | 43.19159 | 85.93622 | 35196 ft | 488 kts | 83° |
| 2026-05-07 09:06 | 43.19749 | 85.98187 | 35198 ft | 486 kts | 71° |
| 2026-05-07 09:06 | 43.20969 | 86.02484 | 35219 ft | 483 kts | 60° |
| 2026-05-07 09:06 | 43.24554 | 86.10255 | 35193 ft | 483 kts | 55° |
| 2026-05-07 09:07 | 43.28273 | 86.17942 | 35208 ft | 483 kts | 55° |
| 2026-05-07 09:07 | 43.31993 | 86.25651 | 35201 ft | 484 kts | 54° |
| 2026-05-07 09:08 | 43.35745 | 86.33316 | 35200 ft | 484 kts | 54° |
| 2026-05-07 09:08 | 43.39451 | 86.40984 | 35187 ft | 485 kts | 54° |
| 2026-05-07 09:09 | 43.43198 | 86.48706 | 35176 ft | 485 kts | 54° |
| 2026-05-07 09:09 | 43.46962 | 86.56406 | 35158 ft | 485 kts | 54° |
| 2026-05-07 09:10 | 43.50712 | 86.64140 | 35138 ft | 485 kts | 54° |
| 2026-05-07 09:10 | 43.54460 | 86.71866 | 35119 ft | 485 kts | 54° |
| 2026-05-07 09:11 | 43.58155 | 86.79655 | 35103 ft | 485 kts | 55° |
| 2026-05-07 09:11 | 43.61843 | 86.87455 | 35087 ft | 485 kts | 54° |
| 2026-05-07 09:12 | 43.65507 | 86.95202 | 35071 ft | 485 kts | 55° |
| 2026-05-07 09:12 | 43.69183 | 87.03018 | 35055 ft | 485 kts | 55° |
| 2026-05-07 09:13 | 43.72864 | 87.10850 | 35034 ft | 485 kts | 55° |
| 2026-05-07 09:13 | 43.76523 | 87.18704 | 35019 ft | 485 kts | 56° |
| 2026-05-07 09:14 | 43.80160 | 87.26575 | 35007 ft | 485 kts | 55° |
| 2026-05-07 09:14 | 43.83782 | 87.34407 | 35004 ft | 486 kts | 56° |
| 2026-05-07 09:15 | 43.87419 | 87.42309 | 35003 ft | 486 kts | 56° |
| 2026-05-07 09:15 | 43.90439 | 87.48878 | 35004 ft | 486 kts | 56° |
| 2026-05-07 09:16 | 43.94418 | 87.56430 | 35000 ft | 484 kts | 50° |
| 2026-05-07 09:16 | 43.98511 | 87.63860 | 35001 ft | 484 kts | 51° |
| 2026-05-07 09:17 | 44.02593 | 87.71308 | 35002 ft | 484 kts | 51° |
| 2026-05-07 09:17 | 44.06671 | 87.78754 | 35005 ft | 484 kts | 51° |
| 2026-05-07 09:18 | 44.10744 | 87.86219 | 34998 ft | 484 kts | 51° |
| 2026-05-07 09:18 | 44.14819 | 87.93701 | 35006 ft | 485 kts | 51° |
| 2026-05-07 09:19 | 44.16604 | 87.97615 | 35029 ft | 487 kts | 62° |
| 2026-05-07 09:19 | 44.17850 | 88.02071 | 35026 ft | 490 kts | 74° |
| 2026-05-07 09:19 | 44.18549 | 88.06651 | 35146 ft | 486 kts | 79° |
| 2026-05-07 09:19 | 44.19211 | 88.11274 | 35009 ft | 486 kts | 75° |
| 2026-05-07 09:20 | 44.20693 | 88.20471 | 35016 ft | 489 kts | 77° |
| 2026-05-07 09:20 | 44.22012 | 88.29806 | 35015 ft | 491 kts | 76° |
| 2026-05-07 09:21 | 44.23422 | 88.39120 | 35011 ft | 491 kts | 76° |
| 2026-05-07 09:21 | 44.24774 | 88.48481 | 35001 ft | 492 kts | 77° |
| 2026-05-07 09:22 | 44.26137 | 88.57770 | 34991 ft | 492 kts | 77° |
| 2026-05-07 09:22 | 44.27487 | 88.67128 | 34982 ft | 491 kts | 77° |
| 2026-05-07 09:23 | 44.28837 | 88.76494 | 34973 ft | 492 kts | 77° |
| 2026-05-07 09:23 | 44.30177 | 88.85866 | 34970 ft | 492 kts | 77° |
| 2026-05-07 09:24 | 44.31508 | 88.95228 | 34965 ft | 491 kts | 77° |
| 2026-05-07 09:24 | 44.32825 | 89.04551 | 34958 ft | 491 kts | 77° |
| 2026-05-07 09:25 | 44.34140 | 89.13917 | 34951 ft | 491 kts | 77° |
| 2026-05-07 09:25 | 44.35449 | 89.23300 | 34953 ft | 492 kts | 77° |
| 2026-05-07 09:26 | 44.36750 | 89.32688 | 34952 ft | 492 kts | 77° |
| 2026-05-07 09:26 | 44.38044 | 89.42081 | 34950 ft | 492 kts | 77° |
| 2026-05-07 09:27 | 44.39330 | 89.51477 | 34946 ft | 492 kts | 77° |
| 2026-05-07 09:28 | 44.41179 | 89.65557 | 34953 ft | 494 kts | 84° |
| 2026-05-07 09:28 | 44.41176 | 89.70358 | 34957 ft | 497 kts | 96° |
| 2026-05-07 09:28 | 44.40502 | 89.75104 | 34962 ft | 498 kts | 106° |
| 2026-05-07 09:29 | 44.38505 | 89.84398 | 34938 ft | 499 kts | 106° |
| 2026-05-07 09:29 | 44.36478 | 89.93671 | 34935 ft | 499 kts | 106° |
| 2026-05-07 09:30 | 44.34461 | 90.02958 | 34939 ft | 499 kts | 106° |
| 2026-05-07 09:30 | 44.32426 | 90.12216 | 34939 ft | 498 kts | 106° |
| 2026-05-07 09:31 | 44.30393 | 90.21469 | 34941 ft | 498 kts | 106° |
| 2026-05-07 09:31 | 44.28348 | 90.30715 | 34943 ft | 498 kts | 106° |
| 2026-05-07 09:32 | 44.26314 | 90.39882 | 34948 ft | 497 kts | 106° |
| 2026-05-07 09:32 | 44.24261 | 90.49088 | 34947 ft | 497 kts | 106° |
| 2026-05-07 09:33 | 44.22201 | 90.58289 | 34950 ft | 496 kts | 106° |
| 2026-05-07 09:33 | 44.20137 | 90.67464 | 34956 ft | 496 kts | 107° |
| 2026-05-07 09:34 | 44.18063 | 90.76650 | 34960 ft | 496 kts | 107° |
| 2026-05-07 09:34 | 44.15985 | 90.85813 | 34962 ft | 496 kts | 107° |
| 2026-05-07 09:35 | 44.13899 | 90.94973 | 34965 ft | 496 kts | 107° |
| 2026-05-07 09:35 | 44.11808 | 91.04114 | 34966 ft | 496 kts | 107° |
| 2026-05-07 09:36 | 44.09725 | 91.13193 | 34970 ft | 496 kts | 107° |
| 2026-05-07 09:36 | 44.07617 | 91.22342 | 34971 ft | 496 kts | 107° |
| 2026-05-07 09:37 | 44.05505 | 91.31473 | 34978 ft | 496 kts | 107° |
| 2026-05-07 09:37 | 44.03387 | 91.40588 | 34984 ft | 495 kts | 107° |
| 2026-05-07 09:38 | 44.01251 | 91.49686 | 34989 ft | 495 kts | 107° |
| 2026-05-07 09:38 | 43.99098 | 91.58765 | 34997 ft | 495 kts | 107° |
| 2026-05-07 09:39 | 43.96947 | 91.67840 | 35003 ft | 494 kts | 107° |
| 2026-05-07 09:39 | 43.94785 | 91.76896 | 35011 ft | 494 kts | 107° |
| 2026-05-07 09:40 | 43.92620 | 91.85942 | 35012 ft | 495 kts | 107° |
| 2026-05-07 09:40 | 43.90457 | 91.94938 | 35016 ft | 495 kts | 108° |
| 2026-05-07 09:41 | 43.88269 | 92.04005 | 35029 ft | 495 kts | 108° |
| 2026-05-07 09:41 | 43.86072 | 92.13070 | 35031 ft | 496 kts | 108° |
| 2026-05-07 09:42 | 43.83868 | 92.22131 | 35037 ft | 495 kts | 108° |
| 2026-05-07 09:42 | 43.81658 | 92.31178 | 35040 ft | 495 kts | 108° |
| 2026-05-07 09:43 | 43.79461 | 92.40139 | 35040 ft | 494 kts | 108° |
| 2026-05-07 09:43 | 43.77243 | 92.49148 | 35037 ft | 494 kts | 108° |
| 2026-05-07 09:44 | 43.75018 | 92.58151 | 35036 ft | 493 kts | 108° |
| 2026-05-07 09:44 | 43.72793 | 92.67116 | 35039 ft | 493 kts | 108° |
| 2026-05-07 09:45 | 43.70561 | 92.76077 | 35035 ft | 492 kts | 108° |
| 2026-05-07 09:45 | 43.68320 | 92.85039 | 35035 ft | 493 kts | 108° |
| 2026-05-07 09:46 | 43.66073 | 92.93989 | 35046 ft | 493 kts | 108° |
| 2026-05-07 09:46 | 43.63931 | 93.02920 | 35050 ft | 493 kts | 107° |
| 2026-05-07 09:47 | 43.61717 | 93.11884 | 35062 ft | 493 kts | 108° |
| 2026-05-07 09:47 | 43.59596 | 93.20881 | 35069 ft | 493 kts | 107° |
| 2026-05-07 09:48 | 43.57418 | 93.29862 | 35073 ft | 493 kts | 108° |
| 2026-05-07 09:48 | 43.55255 | 93.38838 | 35077 ft | 493 kts | 107° |
| 2026-05-07 09:49 | 43.53079 | 93.47796 | 35082 ft | 493 kts | 108° |
| 2026-05-07 09:49 | 43.50898 | 93.56753 | 35079 ft | 493 kts | 108° |
| 2026-05-07 09:50 | 43.48721 | 93.65654 | 35081 ft | 493 kts | 108° |
| 2026-05-07 09:50 | 43.46521 | 93.74613 | 35085 ft | 494 kts | 108° |
| 2026-05-07 09:51 | 43.44315 | 93.83566 | 35084 ft | 494 kts | 108° |
| 2026-05-07 09:51 | 43.42098 | 93.92523 | 35085 ft | 494 kts | 108° |
| 2026-05-07 09:52 | 43.39877 | 94.01465 | 35083 ft | 494 kts | 108° |
| 2026-05-07 09:52 | 43.37648 | 94.10404 | 35082 ft | 494 kts | 108° |
| 2026-05-07 09:53 | 43.35414 | 94.19330 | 35083 ft | 494 kts | 108° |
| 2026-05-07 09:53 | 43.33187 | 94.28194 | 35077 ft | 494 kts | 108° |
| 2026-05-07 09:54 | 43.30940 | 94.37102 | 35071 ft | 493 kts | 109° |
| 2026-05-07 09:54 | 43.28688 | 94.45995 | 35065 ft | 492 kts | 109° |
| 2026-05-07 09:55 | 43.26435 | 94.54858 | 35053 ft | 491 kts | 109° |
| 2026-05-07 09:55 | 43.24179 | 94.63701 | 35042 ft | 490 kts | 109° |
| 2026-05-07 09:56 | 43.21917 | 94.72534 | 35027 ft | 490 kts | 109° |
| 2026-05-07 09:56 | 43.19651 | 94.81351 | 35012 ft | 490 kts | 109° |
| 2026-05-07 09:57 | 43.17391 | 94.90109 | 35001 ft | 491 kts | 109° |
| 2026-05-07 09:57 | 43.15863 | 94.96013 | 34984 ft | 491 kts | 109° |